<?xml version='1.0' encoding='UTF-8'?><gpx version="1.1" creator="JPX - https://github.com/jenetics/jpx" xmlns="http://www.topografix.com/GPX/1/1"><trk><trkseg><trkpt lat="44.2565091" lon="11.5559248"><ele>174.0</ele><time>2026-05-03T08:53:51.647Z</time></trkpt><trkpt lat="44.256585" lon="11.5559037"><ele>174.0</ele><time>2026-05-03T08:54:05.701Z</time></trkpt><trkpt lat="44.2566389" lon="11.5559642"><ele>174.0</ele><time>2026-05-03T08:54:08.695Z</time></trkpt><trkpt lat="44.2566869" lon="11.5558893"><ele>174.0</ele><time>2026-05-03T08:54:15.298Z</time></trkpt><trkpt lat="44.2565919" lon="11.5556452"><ele>174.0</ele><time>2026-05-03T08:54:17.997Z</time></trkpt><trkpt lat="44.2565257" lon="11.5555168"><ele>174.0</ele><time>2026-05-03T08:54:18.903Z</time></trkpt><trkpt lat="44.2564403" lon="11.5553744"><ele>174.0</ele><time>2026-05-03T08:54:19.911Z</time></trkpt><trkpt lat="44.2563448" lon="11.5552135"><ele>174.0</ele><time>2026-05-03T08:54:20.904Z</time></trkpt><trkpt lat="44.2562398" lon="11.5550472"><ele>174.0</ele><time>2026-05-03T08:54:21.903Z</time></trkpt><trkpt lat="44.2561168" lon="11.5548749"><ele>174.0</ele><time>2026-05-03T08:54:22.896Z</time></trkpt><trkpt lat="44.2559873" lon="11.5546812"><ele>174.0</ele><time>2026-05-03T08:54:23.897Z</time></trkpt><trkpt lat="44.2558584" lon="11.5544866"><ele>174.0</ele><time>2026-05-03T08:54:24.899Z</time></trkpt><trkpt lat="44.2557226" lon="11.5543109"><ele>174.66666666666666</ele><time>2026-05-03T08:54:25.892Z</time></trkpt><trkpt lat="44.2555947" lon="11.5541185"><ele>175.33333333333331</ele><time>2026-05-03T08:54:26.891Z</time></trkpt><trkpt lat="44.2554908" lon="11.553922"><ele>176.0</ele><time>2026-05-03T08:54:27.9Z</time></trkpt><trkpt lat="44.2553945" lon="11.5537153"><ele>174.0</ele><time>2026-05-03T08:54:28.9Z</time></trkpt><trkpt lat="44.2553109" lon="11.5534943"><ele>172.0</ele><time>2026-05-03T08:54:29.891Z</time></trkpt><trkpt lat="44.2552265" lon="11.5532586"><ele>170.0</ele><time>2026-05-03T08:54:30.897Z</time></trkpt><trkpt lat="44.2551229" lon="11.5529962"><ele>169.33333333333331</ele><time>2026-05-03T08:54:31.901Z</time></trkpt><trkpt lat="44.2550206" lon="11.5527479"><ele>168.66666666666666</ele><time>2026-05-03T08:54:32.899Z</time></trkpt><trkpt lat="44.2549166" lon="11.5525182"><ele>168.0</ele><time>2026-05-03T08:54:33.905Z</time></trkpt><trkpt lat="44.2548163" lon="11.5522844"><ele>168.0</ele><time>2026-05-03T08:54:34.911Z</time></trkpt><trkpt lat="44.2547197" lon="11.5520702"><ele>168.0</ele><time>2026-05-03T08:54:35.907Z</time></trkpt><trkpt lat="44.254625" lon="11.5518606"><ele>168.0</ele><time>2026-05-03T08:54:36.911Z</time></trkpt><trkpt lat="44.2545368" lon="11.5516671"><ele>168.0</ele><time>2026-05-03T08:54:37.914Z</time></trkpt><trkpt lat="44.2544305" lon="11.5514887"><ele>168.0</ele><time>2026-05-03T08:54:38.916Z</time></trkpt><trkpt lat="44.2542958" lon="11.5513355"><ele>168.0</ele><time>2026-05-03T08:54:39.914Z</time></trkpt><trkpt lat="44.2541367" lon="11.5511805"><ele>170.0</ele><time>2026-05-03T08:54:40.907Z</time></trkpt><trkpt lat="44.2539524" lon="11.5510219"><ele>172.0</ele><time>2026-05-03T08:54:41.906Z</time></trkpt><trkpt lat="44.2537625" lon="11.5508695"><ele>174.0</ele><time>2026-05-03T08:54:42.912Z</time></trkpt><trkpt lat="44.2535892" lon="11.5507095"><ele>174.0</ele><time>2026-05-03T08:54:43.908Z</time></trkpt><trkpt lat="44.2534235" lon="11.5505681"><ele>174.0</ele><time>2026-05-03T08:54:44.905Z</time></trkpt><trkpt lat="44.2532721" lon="11.5504365"><ele>174.0</ele><time>2026-05-03T08:54:45.906Z</time></trkpt><trkpt lat="44.2531224" lon="11.5503098"><ele>175.0</ele><time>2026-05-03T08:54:46.932Z</time></trkpt><trkpt lat="44.2529892" lon="11.5501777"><ele>176.0</ele><time>2026-05-03T08:54:47.904Z</time></trkpt><trkpt lat="44.2528708" lon="11.5500107"><ele>177.0</ele><time>2026-05-03T08:54:48.901Z</time></trkpt><trkpt lat="44.2527686" lon="11.5498299"><ele>177.0</ele><time>2026-05-03T08:54:49.892Z</time></trkpt><trkpt lat="44.2526983" lon="11.5495887"><ele>177.0</ele><time>2026-05-03T08:54:50.895Z</time></trkpt><trkpt lat="44.2526635" lon="11.5493349"><ele>177.0</ele><time>2026-05-03T08:54:51.89Z</time></trkpt><trkpt lat="44.252647" lon="11.5490753"><ele>176.66666666666666</ele><time>2026-05-03T08:54:52.901Z</time></trkpt><trkpt lat="44.2526228" lon="11.5487935"><ele>176.33333333333331</ele><time>2026-05-03T08:54:53.902Z</time></trkpt><trkpt lat="44.2525902" lon="11.5485177"><ele>176.0</ele><time>2026-05-03T08:54:54.914Z</time></trkpt><trkpt lat="44.2525419" lon="11.5482424"><ele>176.0</ele><time>2026-05-03T08:54:55.909Z</time></trkpt><trkpt lat="44.2524928" lon="11.547974"><ele>176.0</ele><time>2026-05-03T08:54:56.912Z</time></trkpt><trkpt lat="44.2524505" lon="11.5477133"><ele>176.0</ele><time>2026-05-03T08:54:57.914Z</time></trkpt><trkpt lat="44.2524019" lon="11.5474413"><ele>175.66666666666666</ele><time>2026-05-03T08:54:58.911Z</time></trkpt><trkpt lat="44.2523583" lon="11.5471707"><ele>175.33333333333334</ele><time>2026-05-03T08:54:59.913Z</time></trkpt><trkpt lat="44.2523085" lon="11.5469177"><ele>175.0</ele><time>2026-05-03T08:55:00.921Z</time></trkpt><trkpt lat="44.2522538" lon="11.5466818"><ele>175.0</ele><time>2026-05-03T08:55:01.911Z</time></trkpt><trkpt lat="44.2522022" lon="11.5464602"><ele>175.0</ele><time>2026-05-03T08:55:02.916Z</time></trkpt><trkpt lat="44.2521327" lon="11.5462568"><ele>175.0</ele><time>2026-05-03T08:55:03.907Z</time></trkpt><trkpt lat="44.2520441" lon="11.5460619"><ele>175.33333333333334</ele><time>2026-05-03T08:55:04.909Z</time></trkpt><trkpt lat="44.2519299" lon="11.545891"><ele>175.66666666666666</ele><time>2026-05-03T08:55:05.912Z</time></trkpt><trkpt lat="44.2518016" lon="11.5457311"><ele>176.0</ele><time>2026-05-03T08:55:06.913Z</time></trkpt><trkpt lat="44.2516681" lon="11.5455856"><ele>176.0</ele><time>2026-05-03T08:55:07.916Z</time></trkpt><trkpt lat="44.2515393" lon="11.5454382"><ele>176.0</ele><time>2026-05-03T08:55:08.913Z</time></trkpt><trkpt lat="44.2514264" lon="11.5453071"><ele>176.0</ele><time>2026-05-03T08:55:09.909Z</time></trkpt><trkpt lat="44.2513169" lon="11.5451965"><ele>176.0</ele><time>2026-05-03T08:55:10.909Z</time></trkpt><trkpt lat="44.2512238" lon="11.5450907"><ele>176.0</ele><time>2026-05-03T08:55:11.904Z</time></trkpt><trkpt lat="44.2511518" lon="11.5450005"><ele>176.0</ele><time>2026-05-03T08:55:12.909Z</time></trkpt><trkpt lat="44.2510894" lon="11.5449246"><ele>176.0</ele><time>2026-05-03T08:55:13.903Z</time></trkpt><trkpt lat="44.2510625" lon="11.5447617"><ele>176.0</ele><time>2026-05-03T08:55:15.907Z</time></trkpt><trkpt lat="44.2511053" lon="11.5446912"><ele>176.0</ele><time>2026-05-03T08:55:16.909Z</time></trkpt><trkpt lat="44.2511259" lon="11.5445941"><ele>176.0</ele><time>2026-05-03T08:55:17.914Z</time></trkpt><trkpt lat="44.2511174" lon="11.5445015"><ele>174.83333333333331</ele><time>2026-05-03T08:55:18.895Z</time></trkpt><trkpt lat="44.2510779" lon="11.5444211"><ele>173.66666666666666</ele><time>2026-05-03T08:55:19.902Z</time></trkpt><trkpt lat="44.2510099" lon="11.5443499"><ele>172.5</ele><time>2026-05-03T08:55:20.9Z</time></trkpt><trkpt lat="44.2509319" lon="11.54428"><ele>171.33333333333334</ele><time>2026-05-03T08:55:21.895Z</time></trkpt><trkpt lat="44.2508658" lon="11.5442077"><ele>170.16666666666669</ele><time>2026-05-03T08:55:22.907Z</time></trkpt><trkpt lat="44.2508261" lon="11.5441102"><ele>169.0</ele><time>2026-05-03T08:55:23.899Z</time></trkpt><trkpt lat="44.2507898" lon="11.5440012"><ele>169.0</ele><time>2026-05-03T08:55:24.91Z</time></trkpt><trkpt lat="44.2507658" lon="11.5438917"><ele>169.0</ele><time>2026-05-03T08:55:25.907Z</time></trkpt><trkpt lat="44.2507286" lon="11.5437981"><ele>169.0</ele><time>2026-05-03T08:55:26.895Z</time></trkpt><trkpt lat="44.2506806" lon="11.5437148"><ele>169.0</ele><time>2026-05-03T08:55:27.905Z</time></trkpt><trkpt lat="44.2506169" lon="11.5436404"><ele>169.0</ele><time>2026-05-03T08:55:28.901Z</time></trkpt><trkpt lat="44.250549" lon="11.5435482"><ele>169.0</ele><time>2026-05-03T08:55:29.892Z</time></trkpt><trkpt lat="44.2504793" lon="11.5434514"><ele>168.79999999999998</ele><time>2026-05-03T08:55:30.893Z</time></trkpt><trkpt lat="44.2504343" lon="11.5433437"><ele>168.6</ele><time>2026-05-03T08:55:31.894Z</time></trkpt><trkpt lat="44.2504159" lon="11.5432226"><ele>168.4</ele><time>2026-05-03T08:55:32.899Z</time></trkpt><trkpt lat="44.2504415" lon="11.5430815"><ele>168.2</ele><time>2026-05-03T08:55:33.896Z</time></trkpt><trkpt lat="44.2505012" lon="11.5429276"><ele>168.0</ele><time>2026-05-03T08:55:34.902Z</time></trkpt><trkpt lat="44.2505617" lon="11.5427665"><ele>166.25</ele><time>2026-05-03T08:55:35.904Z</time></trkpt><trkpt lat="44.2506109" lon="11.5426055"><ele>164.5</ele><time>2026-05-03T08:55:36.909Z</time></trkpt><trkpt lat="44.2506543" lon="11.5424497"><ele>162.75</ele><time>2026-05-03T08:55:37.897Z</time></trkpt><trkpt lat="44.2506981" lon="11.5423093"><ele>161.0</ele><time>2026-05-03T08:55:38.908Z</time></trkpt><trkpt lat="44.250762" lon="11.5421871"><ele>157.75</ele><time>2026-05-03T08:55:39.904Z</time></trkpt><trkpt lat="44.2508503" lon="11.5420874"><ele>154.5</ele><time>2026-05-03T08:55:40.899Z</time></trkpt><trkpt lat="44.2509496" lon="11.5419969"><ele>151.25</ele><time>2026-05-03T08:55:41.903Z</time></trkpt><trkpt lat="44.2510397" lon="11.5418943"><ele>148.0</ele><time>2026-05-03T08:55:42.911Z</time></trkpt><trkpt lat="44.2511221" lon="11.541789"><ele>147.6</ele><time>2026-05-03T08:55:43.909Z</time></trkpt><trkpt lat="44.2512064" lon="11.5416785"><ele>147.20000000000002</ele><time>2026-05-03T08:55:44.91Z</time></trkpt><trkpt lat="44.251277" lon="11.5415672"><ele>146.8</ele><time>2026-05-03T08:55:45.902Z</time></trkpt><trkpt lat="44.2513364" lon="11.5414479"><ele>146.4</ele><time>2026-05-03T08:55:46.921Z</time></trkpt><trkpt lat="44.2513643" lon="11.5413227"><ele>146.0</ele><time>2026-05-03T08:55:47.906Z</time></trkpt><trkpt lat="44.2513385" lon="11.5411849"><ele>146.0</ele><time>2026-05-03T08:55:48.925Z</time></trkpt><trkpt lat="44.2512716" lon="11.5410334"><ele>146.0</ele><time>2026-05-03T08:55:49.903Z</time></trkpt><trkpt lat="44.2511833" lon="11.5408702"><ele>146.0</ele><time>2026-05-03T08:55:50.907Z</time></trkpt><trkpt lat="44.2510889" lon="11.5406969"><ele>146.0</ele><time>2026-05-03T08:55:51.899Z</time></trkpt><trkpt lat="44.2509838" lon="11.5404953"><ele>144.66666666666666</ele><time>2026-05-03T08:55:52.913Z</time></trkpt><trkpt lat="44.250884" lon="11.5403023"><ele>143.33333333333334</ele><time>2026-05-03T08:55:53.914Z</time></trkpt><trkpt lat="44.2507922" lon="11.540118"><ele>142.0</ele><time>2026-05-03T08:55:54.918Z</time></trkpt><trkpt lat="44.250696" lon="11.5399341"><ele>143.0</ele><time>2026-05-03T08:55:55.908Z</time></trkpt><trkpt lat="44.2506063" lon="11.5397494"><ele>144.0</ele><time>2026-05-03T08:55:56.915Z</time></trkpt><trkpt lat="44.2505184" lon="11.5395677"><ele>145.0</ele><time>2026-05-03T08:55:57.909Z</time></trkpt><trkpt lat="44.2504171" lon="11.539408"><ele>145.0</ele><time>2026-05-03T08:55:58.912Z</time></trkpt><trkpt lat="44.2503038" lon="11.5392495"><ele>145.0</ele><time>2026-05-03T08:55:59.916Z</time></trkpt><trkpt lat="44.2501828" lon="11.5391148"><ele>145.0</ele><time>2026-05-03T08:56:00.915Z</time></trkpt><trkpt lat="44.2500634" lon="11.5389915"><ele>145.0</ele><time>2026-05-03T08:56:01.905Z</time></trkpt><trkpt lat="44.2499556" lon="11.5388823"><ele>145.0</ele><time>2026-05-03T08:56:02.902Z</time></trkpt><trkpt lat="44.2498755" lon="11.5387966"><ele>145.0</ele><time>2026-05-03T08:56:03.904Z</time></trkpt><trkpt lat="44.2498119" lon="11.5387254"><ele>145.0</ele><time>2026-05-03T08:56:04.903Z</time></trkpt><trkpt lat="44.2497797" lon="11.53859"><ele>145.0</ele><time>2026-05-03T08:56:06.899Z</time></trkpt><trkpt lat="44.2497842" lon="11.5383997"><ele>143.0</ele><time>2026-05-03T08:56:08.896Z</time></trkpt><trkpt lat="44.2498108" lon="11.5382935"><ele>141.0</ele><time>2026-05-03T08:56:09.905Z</time></trkpt><trkpt lat="44.2498667" lon="11.5381845"><ele>139.0</ele><time>2026-05-03T08:56:10.913Z</time></trkpt><trkpt lat="44.2499409" lon="11.5380597"><ele>137.0</ele><time>2026-05-03T08:56:11.903Z</time></trkpt><trkpt lat="44.2500243" lon="11.5379239"><ele>135.0</ele><time>2026-05-03T08:56:12.906Z</time></trkpt><trkpt lat="44.2501156" lon="11.5377669"><ele>134.25</ele><time>2026-05-03T08:56:13.903Z</time></trkpt><trkpt lat="44.2502144" lon="11.5376039"><ele>133.5</ele><time>2026-05-03T08:56:14.906Z</time></trkpt><trkpt lat="44.2503033" lon="11.5374468"><ele>132.75</ele><time>2026-05-03T08:56:15.909Z</time></trkpt><trkpt lat="44.2503852" lon="11.5372971"><ele>132.0</ele><time>2026-05-03T08:56:16.907Z</time></trkpt><trkpt lat="44.2504513" lon="11.5371602"><ele>133.4</ele><time>2026-05-03T08:56:17.901Z</time></trkpt><trkpt lat="44.2505032" lon="11.5370358"><ele>134.79999999999998</ele><time>2026-05-03T08:56:18.905Z</time></trkpt><trkpt lat="44.2505295" lon="11.5369181"><ele>136.2</ele><time>2026-05-03T08:56:19.926Z</time></trkpt><trkpt lat="44.2505078" lon="11.5367906"><ele>137.6</ele><time>2026-05-03T08:56:20.913Z</time></trkpt><trkpt lat="44.2504396" lon="11.536652"><ele>139.0</ele><time>2026-05-03T08:56:21.906Z</time></trkpt><trkpt lat="44.2503413" lon="11.5365075"><ele>139.0</ele><time>2026-05-03T08:56:22.91Z</time></trkpt><trkpt lat="44.250241" lon="11.5363591"><ele>139.0</ele><time>2026-05-03T08:56:23.91Z</time></trkpt><trkpt lat="44.2501566" lon="11.5362221"><ele>139.0</ele><time>2026-05-03T08:56:24.918Z</time></trkpt><trkpt lat="44.2500928" lon="11.5361073"><ele>139.0</ele><time>2026-05-03T08:56:25.908Z</time></trkpt><trkpt lat="44.2500559" lon="11.535997"><ele>141.2</ele><time>2026-05-03T08:56:26.914Z</time></trkpt><trkpt lat="44.2500624" lon="11.5358929"><ele>143.4</ele><time>2026-05-03T08:56:27.911Z</time></trkpt><trkpt lat="44.2501129" lon="11.5357959"><ele>145.6</ele><time>2026-05-03T08:56:28.91Z</time></trkpt><trkpt lat="44.2502015" lon="11.5357096"><ele>147.8</ele><time>2026-05-03T08:56:29.903Z</time></trkpt><trkpt lat="44.2502941" lon="11.535608"><ele>150.0</ele><time>2026-05-03T08:56:30.91Z</time></trkpt><trkpt lat="44.2503872" lon="11.5354901"><ele>151.5</ele><time>2026-05-03T08:56:31.916Z</time></trkpt><trkpt lat="44.2504779" lon="11.5353524"><ele>153.0</ele><time>2026-05-03T08:56:32.915Z</time></trkpt><trkpt lat="44.2505648" lon="11.5352066"><ele>154.5</ele><time>2026-05-03T08:56:33.918Z</time></trkpt><trkpt lat="44.2506643" lon="11.5350504"><ele>156.0</ele><time>2026-05-03T08:56:34.917Z</time></trkpt><trkpt lat="44.2507736" lon="11.5349052"><ele>156.2</ele><time>2026-05-03T08:56:35.918Z</time></trkpt><trkpt lat="44.2508593" lon="11.5347809"><ele>156.39999999999998</ele><time>2026-05-03T08:56:36.912Z</time></trkpt><trkpt lat="44.2509085" lon="11.5346452"><ele>156.6</ele><time>2026-05-03T08:56:37.909Z</time></trkpt><trkpt lat="44.2509139" lon="11.5345077"><ele>156.79999999999998</ele><time>2026-05-03T08:56:38.911Z</time></trkpt><trkpt lat="44.2508853" lon="11.5343588"><ele>157.0</ele><time>2026-05-03T08:56:39.912Z</time></trkpt><trkpt lat="44.2508307" lon="11.5341986"><ele>158.25</ele><time>2026-05-03T08:56:40.906Z</time></trkpt><trkpt lat="44.250758" lon="11.5340423"><ele>159.5</ele><time>2026-05-03T08:56:41.913Z</time></trkpt><trkpt lat="44.2506853" lon="11.5338771"><ele>160.75</ele><time>2026-05-03T08:56:42.909Z</time></trkpt><trkpt lat="44.2506218" lon="11.5336971"><ele>162.0</ele><time>2026-05-03T08:56:43.908Z</time></trkpt><trkpt lat="44.2505631" lon="11.5335091"><ele>162.0</ele><time>2026-05-03T08:56:44.913Z</time></trkpt><trkpt lat="44.2504851" lon="11.5333069"><ele>162.0</ele><time>2026-05-03T08:56:45.909Z</time></trkpt><trkpt lat="44.2504167" lon="11.5331074"><ele>162.0</ele><time>2026-05-03T08:56:46.907Z</time></trkpt><trkpt lat="44.250354" lon="11.5329277"><ele>163.2</ele><time>2026-05-03T08:56:47.906Z</time></trkpt><trkpt lat="44.2502985" lon="11.5327698"><ele>164.39999999999998</ele><time>2026-05-03T08:56:48.905Z</time></trkpt><trkpt lat="44.2502468" lon="11.5326145"><ele>165.60000000000002</ele><time>2026-05-03T08:56:49.905Z</time></trkpt><trkpt lat="44.2502021" lon="11.5324971"><ele>166.8</ele><time>2026-05-03T08:56:50.925Z</time></trkpt><trkpt lat="44.2501904" lon="11.5323843"><ele>168.0</ele><time>2026-05-03T08:56:51.909Z</time></trkpt><trkpt lat="44.2502329" lon="11.5323076"><ele>168.0</ele><time>2026-05-03T08:56:52.906Z</time></trkpt><trkpt lat="44.2502856" lon="11.5322575"><ele>168.0</ele><time>2026-05-03T08:56:53.906Z</time></trkpt><trkpt lat="44.250364" lon="11.5322639"><ele>168.0</ele><time>2026-05-03T08:56:54.906Z</time></trkpt><trkpt lat="44.2504352" lon="11.5322932"><ele>168.0</ele><time>2026-05-03T08:56:55.913Z</time></trkpt><trkpt lat="44.2504983" lon="11.5323558"><ele>168.0</ele><time>2026-05-03T08:56:56.915Z</time></trkpt><trkpt lat="44.2505629" lon="11.5324484"><ele>168.0</ele><time>2026-05-03T08:56:57.918Z</time></trkpt><trkpt lat="44.2506247" lon="11.5325891"><ele>170.75</ele><time>2026-05-03T08:56:58.917Z</time></trkpt><trkpt lat="44.2506972" lon="11.5327588"><ele>173.5</ele><time>2026-05-03T08:56:59.909Z</time></trkpt><trkpt lat="44.2507715" lon="11.5329335"><ele>176.25</ele><time>2026-05-03T08:57:00.907Z</time></trkpt><trkpt lat="44.2508512" lon="11.5331105"><ele>179.0</ele><time>2026-05-03T08:57:01.906Z</time></trkpt><trkpt lat="44.2509304" lon="11.533307"><ele>179.0</ele><time>2026-05-03T08:57:02.899Z</time></trkpt><trkpt lat="44.250993" lon="11.5335047"><ele>179.0</ele><time>2026-05-03T08:57:03.907Z</time></trkpt><trkpt lat="44.2510434" lon="11.5336815"><ele>179.0</ele><time>2026-05-03T08:57:04.904Z</time></trkpt><trkpt lat="44.2510774" lon="11.5338389"><ele>179.0</ele><time>2026-05-03T08:57:05.911Z</time></trkpt><trkpt lat="44.2511223" lon="11.5339393"><ele>177.0</ele><time>2026-05-03T08:57:06.908Z</time></trkpt><trkpt lat="44.2512293" lon="11.5340168"><ele>175.0</ele><time>2026-05-03T08:57:08.905Z</time></trkpt><trkpt lat="44.2513059" lon="11.5340146"><ele>173.0</ele><time>2026-05-03T08:57:09.899Z</time></trkpt><trkpt lat="44.2513769" lon="11.5339541"><ele>171.0</ele><time>2026-05-03T08:57:10.915Z</time></trkpt><trkpt lat="44.2514188" lon="11.5338576"><ele>169.0</ele><time>2026-05-03T08:57:11.913Z</time></trkpt><trkpt lat="44.2514123" lon="11.5337283"><ele>171.5</ele><time>2026-05-03T08:57:12.918Z</time></trkpt><trkpt lat="44.2513657" lon="11.5335774"><ele>174.0</ele><time>2026-05-03T08:57:13.902Z</time></trkpt><trkpt lat="44.2513025" lon="11.5334255"><ele>176.5</ele><time>2026-05-03T08:57:14.901Z</time></trkpt><trkpt lat="44.2512409" lon="11.5332675"><ele>179.0</ele><time>2026-05-03T08:57:15.896Z</time></trkpt><trkpt lat="44.2511786" lon="11.5331042"><ele>179.0</ele><time>2026-05-03T08:57:16.9Z</time></trkpt><trkpt lat="44.2511135" lon="11.5329434"><ele>179.0</ele><time>2026-05-03T08:57:17.901Z</time></trkpt><trkpt lat="44.2510435" lon="11.532778"><ele>179.0</ele><time>2026-05-03T08:57:18.901Z</time></trkpt><trkpt lat="44.2509958" lon="11.5325968"><ele>179.0</ele><time>2026-05-03T08:57:19.899Z</time></trkpt><trkpt lat="44.2509694" lon="11.5324174"><ele>181.0</ele><time>2026-05-03T08:57:20.899Z</time></trkpt><trkpt lat="44.2509622" lon="11.5322364"><ele>183.0</ele><time>2026-05-03T08:57:21.909Z</time></trkpt><trkpt lat="44.2509802" lon="11.5320511"><ele>185.0</ele><time>2026-05-03T08:57:22.891Z</time></trkpt><trkpt lat="44.2510119" lon="11.5318669"><ele>187.0</ele><time>2026-05-03T08:57:23.894Z</time></trkpt><trkpt lat="44.2510468" lon="11.5316794"><ele>187.0</ele><time>2026-05-03T08:57:24.899Z</time></trkpt><trkpt lat="44.2510825" lon="11.531494"><ele>187.0</ele><time>2026-05-03T08:57:25.904Z</time></trkpt><trkpt lat="44.2511251" lon="11.5313127"><ele>187.0</ele><time>2026-05-03T08:57:26.908Z</time></trkpt><trkpt lat="44.2511642" lon="11.5311369"><ele>187.0</ele><time>2026-05-03T08:57:27.904Z</time></trkpt><trkpt lat="44.2512086" lon="11.5309619"><ele>185.25</ele><time>2026-05-03T08:57:28.899Z</time></trkpt><trkpt lat="44.2512606" lon="11.5307881"><ele>183.5</ele><time>2026-05-03T08:57:29.899Z</time></trkpt><trkpt lat="44.2513237" lon="11.5306231"><ele>181.75</ele><time>2026-05-03T08:57:30.892Z</time></trkpt><trkpt lat="44.2513924" lon="11.5304677"><ele>180.0</ele><time>2026-05-03T08:57:31.889Z</time></trkpt><trkpt lat="44.251457" lon="11.5303192"><ele>186.5</ele><time>2026-05-03T08:57:32.9Z</time></trkpt><trkpt lat="44.2515056" lon="11.5301601"><ele>193.0</ele><time>2026-05-03T08:57:33.902Z</time></trkpt><trkpt lat="44.2515438" lon="11.5299991"><ele>199.5</ele><time>2026-05-03T08:57:34.899Z</time></trkpt><trkpt lat="44.2515836" lon="11.5298355"><ele>206.0</ele><time>2026-05-03T08:57:35.899Z</time></trkpt><trkpt lat="44.2516257" lon="11.5296768"><ele>204.4</ele><time>2026-05-03T08:57:36.9Z</time></trkpt><trkpt lat="44.2516781" lon="11.5295341"><ele>202.8</ele><time>2026-05-03T08:57:37.896Z</time></trkpt><trkpt lat="44.2517285" lon="11.5294045"><ele>201.20000000000002</ele><time>2026-05-03T08:57:38.906Z</time></trkpt><trkpt lat="44.2517665" lon="11.5292786"><ele>199.60000000000002</ele><time>2026-05-03T08:57:39.892Z</time></trkpt><trkpt lat="44.2517905" lon="11.5291646"><ele>198.0</ele><time>2026-05-03T08:57:40.899Z</time></trkpt><trkpt lat="44.2518104" lon="11.5290623"><ele>198.0</ele><time>2026-05-03T08:57:41.894Z</time></trkpt><trkpt lat="44.2518312" lon="11.5289789"><ele>198.0</ele><time>2026-05-03T08:57:42.898Z</time></trkpt><trkpt lat="44.251898" lon="11.5289228"><ele>198.0</ele><time>2026-05-03T08:57:44.896Z</time></trkpt><trkpt lat="44.2519467" lon="11.528992"><ele>198.0</ele><time>2026-05-03T08:57:45.894Z</time></trkpt><trkpt lat="44.2519788" lon="11.5290993"><ele>198.0</ele><time>2026-05-03T08:57:46.899Z</time></trkpt><trkpt lat="44.2519713" lon="11.5292458"><ele>198.0</ele><time>2026-05-03T08:57:47.896Z</time></trkpt><trkpt lat="44.2519178" lon="11.5294104"><ele>200.0</ele><time>2026-05-03T08:57:48.896Z</time></trkpt><trkpt lat="44.2518453" lon="11.5295863"><ele>202.0</ele><time>2026-05-03T08:57:49.886Z</time></trkpt><trkpt lat="44.2517835" lon="11.5297706"><ele>204.0</ele><time>2026-05-03T08:57:50.889Z</time></trkpt><trkpt lat="44.251738" lon="11.5299537"><ele>206.0</ele><time>2026-05-03T08:57:51.894Z</time></trkpt><trkpt lat="44.2517086" lon="11.5301311"><ele>206.0</ele><time>2026-05-03T08:57:52.928Z</time></trkpt><trkpt lat="44.2516961" lon="11.5302996"><ele>206.0</ele><time>2026-05-03T08:57:53.9Z</time></trkpt><trkpt lat="44.2517117" lon="11.5304582"><ele>206.0</ele><time>2026-05-03T08:57:54.908Z</time></trkpt><trkpt lat="44.2517503" lon="11.5306069"><ele>206.0</ele><time>2026-05-03T08:57:55.893Z</time></trkpt><trkpt lat="44.2517618" lon="11.5307533"><ele>208.75</ele><time>2026-05-03T08:57:56.895Z</time></trkpt><trkpt lat="44.251757" lon="11.5309025"><ele>211.5</ele><time>2026-05-03T08:57:57.893Z</time></trkpt><trkpt lat="44.2517214" lon="11.531059"><ele>214.25</ele><time>2026-05-03T08:57:58.891Z</time></trkpt><trkpt lat="44.2516837" lon="11.5312334"><ele>217.0</ele><time>2026-05-03T08:57:59.894Z</time></trkpt><trkpt lat="44.2516407" lon="11.531403"><ele>218.5</ele><time>2026-05-03T08:58:00.899Z</time></trkpt><trkpt lat="44.2516019" lon="11.5315678"><ele>220.0</ele><time>2026-05-03T08:58:01.893Z</time></trkpt><trkpt lat="44.2515652" lon="11.5317269"><ele>221.5</ele><time>2026-05-03T08:58:02.893Z</time></trkpt><trkpt lat="44.2515362" lon="11.5318794"><ele>223.0</ele><time>2026-05-03T08:58:03.897Z</time></trkpt><trkpt lat="44.2515284" lon="11.5320269"><ele>222.0</ele><time>2026-05-03T08:58:04.907Z</time></trkpt><trkpt lat="44.2515291" lon="11.5321706"><ele>221.0</ele><time>2026-05-03T08:58:05.915Z</time></trkpt><trkpt lat="44.2515554" lon="11.532319"><ele>220.0</ele><time>2026-05-03T08:58:06.917Z</time></trkpt><trkpt lat="44.2515929" lon="11.5324548"><ele>219.0</ele><time>2026-05-03T08:58:07.918Z</time></trkpt><trkpt lat="44.2516488" lon="11.53256"><ele>218.0</ele><time>2026-05-03T08:58:08.918Z</time></trkpt><trkpt lat="44.2517196" lon="11.532618"><ele>218.0</ele><time>2026-05-03T08:58:09.918Z</time></trkpt><trkpt lat="44.2518161" lon="11.532615"><ele>218.0</ele><time>2026-05-03T08:58:10.92Z</time></trkpt><trkpt lat="44.2519177" lon="11.5325404"><ele>218.0</ele><time>2026-05-03T08:58:11.916Z</time></trkpt><trkpt lat="44.2519973" lon="11.5324065"><ele>218.0</ele><time>2026-05-03T08:58:12.913Z</time></trkpt><trkpt lat="44.2520427" lon="11.5322285"><ele>219.66666666666669</ele><time>2026-05-03T08:58:13.907Z</time></trkpt><trkpt lat="44.2520647" lon="11.5320163"><ele>221.33333333333331</ele><time>2026-05-03T08:58:14.897Z</time></trkpt><trkpt lat="44.252069" lon="11.5317948"><ele>223.0</ele><time>2026-05-03T08:58:15.896Z</time></trkpt><trkpt lat="44.2520706" lon="11.5315889"><ele>223.0</ele><time>2026-05-03T08:58:16.9Z</time></trkpt><trkpt lat="44.2520668" lon="11.5313819"><ele>223.0</ele><time>2026-05-03T08:58:17.897Z</time></trkpt><trkpt lat="44.252066" lon="11.5311872"><ele>223.0</ele><time>2026-05-03T08:58:18.9Z</time></trkpt><trkpt lat="44.252083" lon="11.5310021"><ele>223.0</ele><time>2026-05-03T08:58:19.91Z</time></trkpt><trkpt lat="44.2521367" lon="11.5308298"><ele>221.5</ele><time>2026-05-03T08:58:20.891Z</time></trkpt><trkpt lat="44.2522086" lon="11.5306781"><ele>220.0</ele><time>2026-05-03T08:58:21.892Z</time></trkpt><trkpt lat="44.2522681" lon="11.5305317"><ele>218.5</ele><time>2026-05-03T08:58:22.915Z</time></trkpt><trkpt lat="44.2523117" lon="11.5303893"><ele>217.0</ele><time>2026-05-03T08:58:23.892Z</time></trkpt><trkpt lat="44.2523423" lon="11.5302357"><ele>223.25</ele><time>2026-05-03T08:58:24.899Z</time></trkpt><trkpt lat="44.2523635" lon="11.5300754"><ele>229.5</ele><time>2026-05-03T08:58:25.894Z</time></trkpt><trkpt lat="44.2523931" lon="11.5299135"><ele>235.75</ele><time>2026-05-03T08:58:26.895Z</time></trkpt><trkpt lat="44.2524377" lon="11.5297562"><ele>242.0</ele><time>2026-05-03T08:58:27.901Z</time></trkpt><trkpt lat="44.2524971" lon="11.5296091"><ele>241.5</ele><time>2026-05-03T08:58:28.911Z</time></trkpt><trkpt lat="44.2525478" lon="11.5294575"><ele>241.0</ele><time>2026-05-03T08:58:29.921Z</time></trkpt><trkpt lat="44.2525936" lon="11.5292974"><ele>240.5</ele><time>2026-05-03T08:58:30.914Z</time></trkpt><trkpt lat="44.2526347" lon="11.529129"><ele>240.0</ele><time>2026-05-03T08:58:31.919Z</time></trkpt><trkpt lat="44.2526704" lon="11.5289571"><ele>240.0</ele><time>2026-05-03T08:58:32.914Z</time></trkpt><trkpt lat="44.2527117" lon="11.528788"><ele>240.0</ele><time>2026-05-03T08:58:33.922Z</time></trkpt><trkpt lat="44.2527642" lon="11.5286329"><ele>240.0</ele><time>2026-05-03T08:58:34.92Z</time></trkpt><trkpt lat="44.252835" lon="11.5284856"><ele>240.0</ele><time>2026-05-03T08:58:35.913Z</time></trkpt><trkpt lat="44.2529074" lon="11.5283563"><ele>241.0</ele><time>2026-05-03T08:58:36.912Z</time></trkpt><trkpt lat="44.2529849" lon="11.528244"><ele>242.0</ele><time>2026-05-03T08:58:37.909Z</time></trkpt><trkpt lat="44.2530553" lon="11.5281262"><ele>243.0</ele><time>2026-05-03T08:58:38.909Z</time></trkpt><trkpt lat="44.2531203" lon="11.5280258"><ele>244.0</ele><time>2026-05-03T08:58:39.91Z</time></trkpt><trkpt lat="44.2531675" lon="11.5279247"><ele>245.0</ele><time>2026-05-03T08:58:40.909Z</time></trkpt><trkpt lat="44.2531898" lon="11.5278025"><ele>248.5</ele><time>2026-05-03T08:58:41.922Z</time></trkpt><trkpt lat="44.2531925" lon="11.5276646"><ele>252.0</ele><time>2026-05-03T08:58:42.91Z</time></trkpt><trkpt lat="44.2531855" lon="11.5275045"><ele>255.5</ele><time>2026-05-03T08:58:43.908Z</time></trkpt><trkpt lat="44.2531656" lon="11.5273323"><ele>259.0</ele><time>2026-05-03T08:58:44.914Z</time></trkpt><trkpt lat="44.2531407" lon="11.5271451"><ele>253.25</ele><time>2026-05-03T08:58:45.908Z</time></trkpt><trkpt lat="44.2531127" lon="11.5269544"><ele>247.5</ele><time>2026-05-03T08:58:46.908Z</time></trkpt><trkpt lat="44.2530781" lon="11.5267541"><ele>241.75</ele><time>2026-05-03T08:58:47.906Z</time></trkpt><trkpt lat="44.2530403" lon="11.5265456"><ele>236.0</ele><time>2026-05-03T08:58:48.904Z</time></trkpt><trkpt lat="44.2530077" lon="11.5263399"><ele>239.25</ele><time>2026-05-03T08:58:49.908Z</time></trkpt><trkpt lat="44.2529886" lon="11.5261367"><ele>242.5</ele><time>2026-05-03T08:58:50.906Z</time></trkpt><trkpt lat="44.2529589" lon="11.5259428"><ele>245.75</ele><time>2026-05-03T08:58:51.904Z</time></trkpt><trkpt lat="44.2529374" lon="11.5257502"><ele>249.0</ele><time>2026-05-03T08:58:52.909Z</time></trkpt><trkpt lat="44.2529276" lon="11.5255554"><ele>254.25</ele><time>2026-05-03T08:58:53.917Z</time></trkpt><trkpt lat="44.2529163" lon="11.5253739"><ele>259.5</ele><time>2026-05-03T08:58:54.907Z</time></trkpt><trkpt lat="44.2528887" lon="11.5252182"><ele>264.75</ele><time>2026-05-03T08:58:55.898Z</time></trkpt><trkpt lat="44.25285" lon="11.5250757"><ele>270.0</ele><time>2026-05-03T08:58:56.905Z</time></trkpt><trkpt lat="44.2527811" lon="11.5249478"><ele>270.0</ele><time>2026-05-03T08:58:57.899Z</time></trkpt><trkpt lat="44.2526839" lon="11.5248204"><ele>270.0</ele><time>2026-05-03T08:58:58.898Z</time></trkpt><trkpt lat="44.2525856" lon="11.5246927"><ele>270.0</ele><time>2026-05-03T08:58:59.895Z</time></trkpt><trkpt lat="44.2524965" lon="11.5245572"><ele>270.0</ele><time>2026-05-03T08:59:00.897Z</time></trkpt><trkpt lat="44.2524199" lon="11.524407"><ele>274.5</ele><time>2026-05-03T08:59:01.906Z</time></trkpt><trkpt lat="44.252352" lon="11.5242371"><ele>279.0</ele><time>2026-05-03T08:59:02.892Z</time></trkpt><trkpt lat="44.2522942" lon="11.5240668"><ele>283.5</ele><time>2026-05-03T08:59:03.898Z</time></trkpt><trkpt lat="44.2522494" lon="11.5239025"><ele>288.0</ele><time>2026-05-03T08:59:04.903Z</time></trkpt><trkpt lat="44.2522181" lon="11.5237364"><ele>283.8</ele><time>2026-05-03T08:59:05.9Z</time></trkpt><trkpt lat="44.252197" lon="11.5235837"><ele>279.6</ele><time>2026-05-03T08:59:06.896Z</time></trkpt><trkpt lat="44.2521851" lon="11.5234388"><ele>275.4</ele><time>2026-05-03T08:59:07.905Z</time></trkpt><trkpt lat="44.2521811" lon="11.5232954"><ele>271.2</ele><time>2026-05-03T08:59:08.901Z</time></trkpt><trkpt lat="44.2521842" lon="11.5231693"><ele>267.0</ele><time>2026-05-03T08:59:09.909Z</time></trkpt><trkpt lat="44.2521855" lon="11.5230507"><ele>267.0</ele><time>2026-05-03T08:59:10.91Z</time></trkpt><trkpt lat="44.2521929" lon="11.5229342"><ele>267.0</ele><time>2026-05-03T08:59:11.921Z</time></trkpt><trkpt lat="44.2522009" lon="11.5228177"><ele>267.0</ele><time>2026-05-03T08:59:12.918Z</time></trkpt><trkpt lat="44.2522043" lon="11.5227047"><ele>267.0</ele><time>2026-05-03T08:59:13.918Z</time></trkpt><trkpt lat="44.2522038" lon="11.5225886"><ele>267.0</ele><time>2026-05-03T08:59:14.914Z</time></trkpt><trkpt lat="44.2521925" lon="11.5224588"><ele>267.0</ele><time>2026-05-03T08:59:15.921Z</time></trkpt><trkpt lat="44.2521733" lon="11.5223306"><ele>269.75</ele><time>2026-05-03T08:59:16.916Z</time></trkpt><trkpt lat="44.2521483" lon="11.522195"><ele>272.5</ele><time>2026-05-03T08:59:17.924Z</time></trkpt><trkpt lat="44.2521075" lon="11.5220492"><ele>275.25</ele><time>2026-05-03T08:59:18.912Z</time></trkpt><trkpt lat="44.2520511" lon="11.5218862"><ele>278.0</ele><time>2026-05-03T08:59:19.926Z</time></trkpt><trkpt lat="44.2519791" lon="11.52171"><ele>281.75</ele><time>2026-05-03T08:59:20.912Z</time></trkpt><trkpt lat="44.2519081" lon="11.5215337"><ele>285.5</ele><time>2026-05-03T08:59:21.92Z</time></trkpt><trkpt lat="44.2518395" lon="11.5213511"><ele>289.25</ele><time>2026-05-03T08:59:22.913Z</time></trkpt><trkpt lat="44.2517831" lon="11.5211964"><ele>293.0</ele><time>2026-05-03T08:59:23.912Z</time></trkpt><trkpt lat="44.2517162" lon="11.521049"><ele>295.5</ele><time>2026-05-03T08:59:24.929Z</time></trkpt><trkpt lat="44.2516401" lon="11.5209163"><ele>298.0</ele><time>2026-05-03T08:59:25.919Z</time></trkpt><trkpt lat="44.2515583" lon="11.5207889"><ele>300.5</ele><time>2026-05-03T08:59:26.92Z</time></trkpt><trkpt lat="44.2514734" lon="11.5206828"><ele>303.0</ele><time>2026-05-03T08:59:27.915Z</time></trkpt><trkpt lat="44.2513883" lon="11.52058"><ele>303.0</ele><time>2026-05-03T08:59:28.916Z</time></trkpt><trkpt lat="44.2513052" lon="11.5204964"><ele>303.0</ele><time>2026-05-03T08:59:29.912Z</time></trkpt><trkpt lat="44.2512239" lon="11.520415"><ele>303.0</ele><time>2026-05-03T08:59:30.917Z</time></trkpt><trkpt lat="44.2511433" lon="11.5203459"><ele>303.0</ele><time>2026-05-03T08:59:31.904Z</time></trkpt><trkpt lat="44.2510615" lon="11.520284"><ele>303.0</ele><time>2026-05-03T08:59:32.913Z</time></trkpt><trkpt lat="44.2509851" lon="11.5202299"><ele>305.0</ele><time>2026-05-03T08:59:33.911Z</time></trkpt><trkpt lat="44.2509188" lon="11.5201884"><ele>307.0</ele><time>2026-05-03T08:59:34.908Z</time></trkpt><trkpt lat="44.2508289" lon="11.5201015"><ele>309.0</ele><time>2026-05-03T08:59:36.907Z</time></trkpt><trkpt lat="44.250821" lon="11.5199682"><ele>311.0</ele><time>2026-05-03T08:59:38.909Z</time></trkpt><trkpt lat="44.2508612" lon="11.5198783"><ele>313.0</ele><time>2026-05-03T08:59:39.908Z</time></trkpt><trkpt lat="44.2509" lon="11.5197723"><ele>315.0</ele><time>2026-05-03T08:59:40.901Z</time></trkpt><trkpt lat="44.250927" lon="11.5196469"><ele>315.8</ele><time>2026-05-03T08:59:41.915Z</time></trkpt><trkpt lat="44.2509284" lon="11.5195124"><ele>316.6</ele><time>2026-05-03T08:59:42.907Z</time></trkpt><trkpt lat="44.2509107" lon="11.5193698"><ele>317.4</ele><time>2026-05-03T08:59:43.91Z</time></trkpt><trkpt lat="44.2508799" lon="11.5192267"><ele>318.2</ele><time>2026-05-03T08:59:44.914Z</time></trkpt><trkpt lat="44.2508456" lon="11.5190796"><ele>319.0</ele><time>2026-05-03T08:59:45.909Z</time></trkpt><trkpt lat="44.2508041" lon="11.5189366"><ele>319.0</ele><time>2026-05-03T08:59:46.914Z</time></trkpt><trkpt lat="44.2507719" lon="11.5187909"><ele>319.0</ele><time>2026-05-03T08:59:47.909Z</time></trkpt><trkpt lat="44.2507332" lon="11.5186471"><ele>319.0</ele><time>2026-05-03T08:59:48.918Z</time></trkpt><trkpt lat="44.2506974" lon="11.518507"><ele>319.0</ele><time>2026-05-03T08:59:49.915Z</time></trkpt><trkpt lat="44.2506609" lon="11.5183723"><ele>319.0</ele><time>2026-05-03T08:59:50.916Z</time></trkpt><trkpt lat="44.250627" lon="11.5182349"><ele>316.4</ele><time>2026-05-03T08:59:51.915Z</time></trkpt><trkpt lat="44.2505922" lon="11.5180929"><ele>313.79999999999995</ele><time>2026-05-03T08:59:52.919Z</time></trkpt><trkpt lat="44.2505556" lon="11.5179574"><ele>311.20000000000005</ele><time>2026-05-03T08:59:53.915Z</time></trkpt><trkpt lat="44.2505255" lon="11.5178391"><ele>308.6</ele><time>2026-05-03T08:59:54.924Z</time></trkpt><trkpt lat="44.2504618" lon="11.5177134"><ele>306.0</ele><time>2026-05-03T08:59:56.918Z</time></trkpt><trkpt lat="44.2503854" lon="11.5176516"><ele>311.4</ele><time>2026-05-03T08:59:58.92Z</time></trkpt><trkpt lat="44.2503177" lon="11.5176024"><ele>316.8</ele><time>2026-05-03T09:01:00.915Z</time></trkpt><trkpt lat="44.250215" lon="11.517504"><ele>322.2</ele><time>2026-05-03T09:01:02.911Z</time></trkpt><trkpt lat="44.2501412" lon="11.5174423"><ele>327.59999999999997</ele><time>2026-05-03T09:01:03.916Z</time></trkpt><trkpt lat="44.2500567" lon="11.5173689"><ele>333.0</ele><time>2026-05-03T09:01:04.91Z</time></trkpt><trkpt lat="44.2499756" lon="11.5172834"><ele>333.0</ele><time>2026-05-03T09:01:05.91Z</time></trkpt><trkpt lat="44.2498905" lon="11.5171921"><ele>333.0</ele><time>2026-05-03T09:01:06.907Z</time></trkpt><trkpt lat="44.2497945" lon="11.517111"><ele>333.0</ele><time>2026-05-03T09:01:07.902Z</time></trkpt><trkpt lat="44.2496814" lon="11.5170355"><ele>333.0</ele><time>2026-05-03T09:01:08.904Z</time></trkpt><trkpt lat="44.249563" lon="11.5169761"><ele>340.75</ele><time>2026-05-03T09:01:09.899Z</time></trkpt><trkpt lat="44.2494512" lon="11.5169489"><ele>348.5</ele><time>2026-05-03T09:01:10.9Z</time></trkpt><trkpt lat="44.2493392" lon="11.5169317"><ele>356.25</ele><time>2026-05-03T09:01:11.892Z</time></trkpt><trkpt lat="44.2492224" lon="11.5169184"><ele>364.0</ele><time>2026-05-03T09:01:12.895Z</time></trkpt><trkpt lat="44.2491061" lon="11.5168848"><ele>364.0</ele><time>2026-05-03T09:01:13.901Z</time></trkpt><trkpt lat="44.2489907" lon="11.5168091"><ele>364.0</ele><time>2026-05-03T09:01:14.899Z</time></trkpt><trkpt lat="44.2488818" lon="11.5167378"><ele>364.0</ele><time>2026-05-03T09:01:15.901Z</time></trkpt><trkpt lat="44.2487673" lon="11.5166695"><ele>364.0</ele><time>2026-05-03T09:01:16.907Z</time></trkpt><trkpt lat="44.2486583" lon="11.5166077"><ele>361.75</ele><time>2026-05-03T09:01:17.907Z</time></trkpt><trkpt lat="44.2485536" lon="11.5165438"><ele>359.5</ele><time>2026-05-03T09:01:18.895Z</time></trkpt><trkpt lat="44.2484525" lon="11.5164755"><ele>357.25</ele><time>2026-05-03T09:01:19.906Z</time></trkpt><trkpt lat="44.2483634" lon="11.5163803"><ele>355.0</ele><time>2026-05-03T09:01:20.908Z</time></trkpt><trkpt lat="44.2482901" lon="11.5162552"><ele>354.25</ele><time>2026-05-03T09:01:21.903Z</time></trkpt><trkpt lat="44.2482201" lon="11.5161161"><ele>353.5</ele><time>2026-05-03T09:01:22.897Z</time></trkpt><trkpt lat="44.2481455" lon="11.5159569"><ele>352.75</ele><time>2026-05-03T09:01:23.911Z</time></trkpt><trkpt lat="44.248073" lon="11.5157869"><ele>352.0</ele><time>2026-05-03T09:01:24.913Z</time></trkpt><trkpt lat="44.2480009" lon="11.5155961"><ele>351.0</ele><time>2026-05-03T09:01:25.911Z</time></trkpt><trkpt lat="44.2479352" lon="11.515405"><ele>350.0</ele><time>2026-05-03T09:01:26.913Z</time></trkpt><trkpt lat="44.2478647" lon="11.5152271"><ele>349.0</ele><time>2026-05-03T09:01:27.912Z</time></trkpt><trkpt lat="44.2477943" lon="11.5150529"><ele>348.0</ele><time>2026-05-03T09:01:28.932Z</time></trkpt><trkpt lat="44.2477277" lon="11.5148871"><ele>348.0</ele><time>2026-05-03T09:01:29.918Z</time></trkpt><trkpt lat="44.2476598" lon="11.5147169"><ele>348.0</ele><time>2026-05-03T09:01:30.915Z</time></trkpt><trkpt lat="44.2475939" lon="11.5145481"><ele>348.0</ele><time>2026-05-03T09:01:31.921Z</time></trkpt><trkpt lat="44.2475234" lon="11.5143845"><ele>348.0</ele><time>2026-05-03T09:01:32.915Z</time></trkpt><trkpt lat="44.2474563" lon="11.5142066"><ele>349.0</ele><time>2026-05-03T09:01:33.918Z</time></trkpt><trkpt lat="44.2474014" lon="11.514016"><ele>350.0</ele><time>2026-05-03T09:01:34.908Z</time></trkpt><trkpt lat="44.2473582" lon="11.5138191"><ele>351.0</ele><time>2026-05-03T09:01:35.915Z</time></trkpt><trkpt lat="44.2472967" lon="11.513631"><ele>352.0</ele><time>2026-05-03T09:01:36.907Z</time></trkpt><trkpt lat="44.2472211" lon="11.5134631"><ele>356.75</ele><time>2026-05-03T09:01:37.915Z</time></trkpt><trkpt lat="44.247131" lon="11.5132997"><ele>361.5</ele><time>2026-05-03T09:01:38.912Z</time></trkpt><trkpt lat="44.2470302" lon="11.5131685"><ele>366.25</ele><time>2026-05-03T09:01:39.919Z</time></trkpt><trkpt lat="44.2469308" lon="11.5130535"><ele>371.0</ele><time>2026-05-03T09:01:40.908Z</time></trkpt><trkpt lat="44.2468428" lon="11.5129549"><ele>369.8</ele><time>2026-05-03T09:01:41.906Z</time></trkpt><trkpt lat="44.2467815" lon="11.5128634"><ele>368.6</ele><time>2026-05-03T09:01:42.902Z</time></trkpt><trkpt lat="44.2467562" lon="11.5127398"><ele>367.4</ele><time>2026-05-03T09:01:43.901Z</time></trkpt><trkpt lat="44.2467354" lon="11.5125981"><ele>366.2</ele><time>2026-05-03T09:01:44.905Z</time></trkpt><trkpt lat="44.2467109" lon="11.5124471"><ele>365.0</ele><time>2026-05-03T09:01:45.896Z</time></trkpt><trkpt lat="44.2466798" lon="11.5122839"><ele>365.0</ele><time>2026-05-03T09:01:46.903Z</time></trkpt><trkpt lat="44.2466379" lon="11.5121227"><ele>365.0</ele><time>2026-05-03T09:01:47.896Z</time></trkpt><trkpt lat="44.246585" lon="11.5119522"><ele>365.0</ele><time>2026-05-03T09:01:48.903Z</time></trkpt><trkpt lat="44.2465213" lon="11.5117759"><ele>365.0</ele><time>2026-05-03T09:01:49.91Z</time></trkpt><trkpt lat="44.2464583" lon="11.5116077"><ele>365.33333333333337</ele><time>2026-05-03T09:01:50.904Z</time></trkpt><trkpt lat="44.2463777" lon="11.5114155"><ele>365.6666666666667</ele><time>2026-05-03T09:01:51.905Z</time></trkpt><trkpt lat="44.2462799" lon="11.5112289"><ele>366.0</ele><time>2026-05-03T09:01:52.9Z</time></trkpt><trkpt lat="44.2461715" lon="11.5110784"><ele>366.0</ele><time>2026-05-03T09:01:53.905Z</time></trkpt><trkpt lat="44.2460474" lon="11.5109514"><ele>366.0</ele><time>2026-05-03T09:01:54.904Z</time></trkpt><trkpt lat="44.2459115" lon="11.5108321"><ele>366.0</ele><time>2026-05-03T09:01:55.913Z</time></trkpt><trkpt lat="44.2457917" lon="11.5107243"><ele>366.0</ele><time>2026-05-03T09:01:56.894Z</time></trkpt><trkpt lat="44.2456846" lon="11.5106079"><ele>366.0</ele><time>2026-05-03T09:01:57.907Z</time></trkpt><trkpt lat="44.2455713" lon="11.5104929"><ele>366.0</ele><time>2026-05-03T09:01:58.905Z</time></trkpt><trkpt lat="44.2454628" lon="11.510386"><ele>366.0</ele><time>2026-05-03T09:01:59.922Z</time></trkpt><trkpt lat="44.2453549" lon="11.5102739"><ele>369.0</ele><time>2026-05-03T09:02:00.912Z</time></trkpt><trkpt lat="44.2452527" lon="11.5101489"><ele>372.0</ele><time>2026-05-03T09:02:01.907Z</time></trkpt><trkpt lat="44.2451679" lon="11.510023"><ele>375.0</ele><time>2026-05-03T09:02:02.909Z</time></trkpt><trkpt lat="44.2451188" lon="11.5098726"><ele>378.0</ele><time>2026-05-03T09:02:03.908Z</time></trkpt><trkpt lat="44.2450907" lon="11.5097043"><ele>381.0</ele><time>2026-05-03T09:02:04.906Z</time></trkpt><trkpt lat="44.2450871" lon="11.5095394"><ele>384.0</ele><time>2026-05-03T09:02:05.909Z</time></trkpt><trkpt lat="44.2450969" lon="11.509376"><ele>387.0</ele><time>2026-05-03T09:02:06.91Z</time></trkpt><trkpt lat="44.2451186" lon="11.5092112"><ele>390.0</ele><time>2026-05-03T09:02:07.91Z</time></trkpt><trkpt lat="44.2451639" lon="11.5090474"><ele>390.0</ele><time>2026-05-03T09:02:08.9Z</time></trkpt><trkpt lat="44.2452197" lon="11.5088801"><ele>390.0</ele><time>2026-05-03T09:02:09.906Z</time></trkpt><trkpt lat="44.2452837" lon="11.5087001"><ele>390.0</ele><time>2026-05-03T09:02:10.907Z</time></trkpt><trkpt lat="44.2453516" lon="11.5085136"><ele>390.0</ele><time>2026-05-03T09:02:11.9Z</time></trkpt><trkpt lat="44.245424" lon="11.5083066"><ele>392.0</ele><time>2026-05-03T09:02:12.903Z</time></trkpt><trkpt lat="44.2455083" lon="11.5081013"><ele>394.0</ele><time>2026-05-03T09:02:13.902Z</time></trkpt><trkpt lat="44.2455949" lon="11.5079178"><ele>396.0</ele><time>2026-05-03T09:02:14.909Z</time></trkpt><trkpt lat="44.2456854" lon="11.5077366"><ele>396.0</ele><time>2026-05-03T09:02:15.908Z</time></trkpt><trkpt lat="44.2457582" lon="11.5075665"><ele>396.0</ele><time>2026-05-03T09:02:16.905Z</time></trkpt><trkpt lat="44.245818" lon="11.5074036"><ele>396.0</ele><time>2026-05-03T09:02:17.901Z</time></trkpt><trkpt lat="44.2458523" lon="11.5072513"><ele>396.0</ele><time>2026-05-03T09:02:18.904Z</time></trkpt><trkpt lat="44.2458524" lon="11.5071136"><ele>395.75</ele><time>2026-05-03T09:02:19.899Z</time></trkpt><trkpt lat="44.2458086" lon="11.5069666"><ele>395.5</ele><time>2026-05-03T09:02:20.904Z</time></trkpt><trkpt lat="44.245736" lon="11.5068061"><ele>395.25</ele><time>2026-05-03T09:02:21.893Z</time></trkpt><trkpt lat="44.2456647" lon="11.5066271"><ele>395.0</ele><time>2026-05-03T09:02:22.898Z</time></trkpt><trkpt lat="44.2455916" lon="11.5064403"><ele>397.3333333333333</ele><time>2026-05-03T09:02:23.897Z</time></trkpt><trkpt lat="44.245523" lon="11.5062359"><ele>399.66666666666663</ele><time>2026-05-03T09:02:24.9Z</time></trkpt><trkpt lat="44.2454679" lon="11.5060317"><ele>402.0</ele><time>2026-05-03T09:02:25.9Z</time></trkpt><trkpt lat="44.2454056" lon="11.5058212"><ele>402.0</ele><time>2026-05-03T09:02:26.897Z</time></trkpt><trkpt lat="44.2453436" lon="11.5056072"><ele>402.0</ele><time>2026-05-03T09:02:27.909Z</time></trkpt><trkpt lat="44.2452857" lon="11.5053869"><ele>402.0</ele><time>2026-05-03T09:02:28.9Z</time></trkpt><trkpt lat="44.2452451" lon="11.50519"><ele>399.0</ele><time>2026-05-03T09:02:29.901Z</time></trkpt><trkpt lat="44.2452101" lon="11.505018"><ele>396.0</ele><time>2026-05-03T09:02:30.932Z</time></trkpt><trkpt lat="44.245186" lon="11.5048647"><ele>393.0</ele><time>2026-05-03T09:02:31.908Z</time></trkpt><trkpt lat="44.2451789" lon="11.5047032"><ele>390.0</ele><time>2026-05-03T09:02:32.905Z</time></trkpt><trkpt lat="44.2451933" lon="11.5045364"><ele>390.0</ele><time>2026-05-03T09:02:33.912Z</time></trkpt><trkpt lat="44.2452308" lon="11.5043636"><ele>390.0</ele><time>2026-05-03T09:02:34.908Z</time></trkpt><trkpt lat="44.2452672" lon="11.5041761"><ele>390.0</ele><time>2026-05-03T09:02:35.922Z</time></trkpt><trkpt lat="44.2453015" lon="11.5039915"><ele>390.0</ele><time>2026-05-03T09:02:36.915Z</time></trkpt><trkpt lat="44.245317" lon="11.503803"><ele>391.5</ele><time>2026-05-03T09:02:37.907Z</time></trkpt><trkpt lat="44.2453084" lon="11.5036065"><ele>393.0</ele><time>2026-05-03T09:02:38.919Z</time></trkpt><trkpt lat="44.2452771" lon="11.5034145"><ele>394.5</ele><time>2026-05-03T09:02:39.916Z</time></trkpt><trkpt lat="44.2452404" lon="11.5032134"><ele>396.0</ele><time>2026-05-03T09:02:40.914Z</time></trkpt><trkpt lat="44.2452058" lon="11.503023"><ele>399.0</ele><time>2026-05-03T09:02:41.915Z</time></trkpt><trkpt lat="44.2451777" lon="11.5028354"><ele>402.0</ele><time>2026-05-03T09:02:42.916Z</time></trkpt><trkpt lat="44.245145" lon="11.5026665"><ele>405.0</ele><time>2026-05-03T09:02:43.914Z</time></trkpt><trkpt lat="44.2450974" lon="11.5024929"><ele>408.0</ele><time>2026-05-03T09:02:44.917Z</time></trkpt><trkpt lat="44.2450165" lon="11.5023357"><ele>408.0</ele><time>2026-05-03T09:02:45.918Z</time></trkpt><trkpt lat="44.2449228" lon="11.5021834"><ele>408.0</ele><time>2026-05-03T09:02:46.917Z</time></trkpt><trkpt lat="44.2448228" lon="11.5020154"><ele>408.0</ele><time>2026-05-03T09:02:47.91Z</time></trkpt><trkpt lat="44.2447307" lon="11.5018455"><ele>407.66666666666663</ele><time>2026-05-03T09:02:48.913Z</time></trkpt><trkpt lat="44.2446373" lon="11.5016682"><ele>407.3333333333333</ele><time>2026-05-03T09:02:49.907Z</time></trkpt><trkpt lat="44.2445541" lon="11.5014871"><ele>407.0</ele><time>2026-05-03T09:02:50.912Z</time></trkpt><trkpt lat="44.2444734" lon="11.5013166"><ele>410.66666666666663</ele><time>2026-05-03T09:02:51.923Z</time></trkpt><trkpt lat="44.244387" lon="11.5011391"><ele>414.33333333333337</ele><time>2026-05-03T09:02:52.916Z</time></trkpt><trkpt lat="44.2443037" lon="11.5009631"><ele>418.0</ele><time>2026-05-03T09:02:53.921Z</time></trkpt><trkpt lat="44.2442242" lon="11.500777"><ele>418.0</ele><time>2026-05-03T09:02:54.916Z</time></trkpt><trkpt lat="44.2441395" lon="11.5005882"><ele>418.0</ele><time>2026-05-03T09:02:55.918Z</time></trkpt><trkpt lat="44.2440562" lon="11.5003965"><ele>418.0</ele><time>2026-05-03T09:02:56.917Z</time></trkpt><trkpt lat="44.2439649" lon="11.5002013"><ele>423.0</ele><time>2026-05-03T09:02:57.922Z</time></trkpt><trkpt lat="44.2438798" lon="11.5000085"><ele>428.0</ele><time>2026-05-03T09:02:58.922Z</time></trkpt><trkpt lat="44.2437996" lon="11.4998161"><ele>433.0</ele><time>2026-05-03T09:02:59.917Z</time></trkpt><trkpt lat="44.2437191" lon="11.499618"><ele>436.5</ele><time>2026-05-03T09:03:00.93Z</time></trkpt><trkpt lat="44.2436683" lon="11.4994158"><ele>440.0</ele><time>2026-05-03T09:03:01.912Z</time></trkpt><trkpt lat="44.2436247" lon="11.4992374"><ele>443.5</ele><time>2026-05-03T09:03:02.908Z</time></trkpt><trkpt lat="44.2435883" lon="11.4990851"><ele>447.0</ele><time>2026-05-03T09:03:03.913Z</time></trkpt><trkpt lat="44.2435197" lon="11.4989352"><ele>447.0</ele><time>2026-05-03T09:03:04.913Z</time></trkpt><trkpt lat="44.2434504" lon="11.4987934"><ele>447.0</ele><time>2026-05-03T09:03:05.916Z</time></trkpt><trkpt lat="44.2433653" lon="11.498631"><ele>447.0</ele><time>2026-05-03T09:03:06.909Z</time></trkpt><trkpt lat="44.2432712" lon="11.4984592"><ele>447.0</ele><time>2026-05-03T09:03:07.912Z</time></trkpt><trkpt lat="44.2431534" lon="11.4982884"><ele>446.66666666666663</ele><time>2026-05-03T09:03:08.911Z</time></trkpt><trkpt lat="44.2430423" lon="11.4981062"><ele>446.3333333333333</ele><time>2026-05-03T09:03:09.918Z</time></trkpt><trkpt lat="44.2429415" lon="11.4979185"><ele>446.0</ele><time>2026-05-03T09:03:10.921Z</time></trkpt><trkpt lat="44.242848" lon="11.497724"><ele>445.3333333333333</ele><time>2026-05-03T09:03:11.916Z</time></trkpt><trkpt lat="44.2427694" lon="11.4975202"><ele>444.66666666666663</ele><time>2026-05-03T09:03:12.917Z</time></trkpt><trkpt lat="44.242699" lon="11.4973115"><ele>444.0</ele><time>2026-05-03T09:03:13.906Z</time></trkpt><trkpt lat="44.2426358" lon="11.4971224"><ele>443.75</ele><time>2026-05-03T09:03:14.906Z</time></trkpt><trkpt lat="44.2425883" lon="11.4969385"><ele>443.5</ele><time>2026-05-03T09:03:15.912Z</time></trkpt><trkpt lat="44.2425424" lon="11.4967831"><ele>443.25</ele><time>2026-05-03T09:03:16.906Z</time></trkpt><trkpt lat="44.2424758" lon="11.4966354"><ele>443.0</ele><time>2026-05-03T09:03:17.917Z</time></trkpt><trkpt lat="44.2423927" lon="11.4965128"><ele>443.25</ele><time>2026-05-03T09:03:18.92Z</time></trkpt><trkpt lat="44.2422876" lon="11.4963908"><ele>443.5</ele><time>2026-05-03T09:03:19.916Z</time></trkpt><trkpt lat="44.2421788" lon="11.4962526"><ele>443.75</ele><time>2026-05-03T09:03:20.918Z</time></trkpt><trkpt lat="44.24207" lon="11.4961215"><ele>444.0</ele><time>2026-05-03T09:03:21.924Z</time></trkpt><trkpt lat="44.2419685" lon="11.4959918"><ele>444.0</ele><time>2026-05-03T09:03:22.917Z</time></trkpt><trkpt lat="44.2418782" lon="11.4958688"><ele>444.0</ele><time>2026-05-03T09:03:23.917Z</time></trkpt><trkpt lat="44.2418009" lon="11.4957521"><ele>444.0</ele><time>2026-05-03T09:03:24.911Z</time></trkpt><trkpt lat="44.2417547" lon="11.495628"><ele>444.0</ele><time>2026-05-03T09:03:25.915Z</time></trkpt><trkpt lat="44.2417408" lon="11.495489"><ele>444.0</ele><time>2026-05-03T09:03:26.912Z</time></trkpt><trkpt lat="44.2417536" lon="11.4953234"><ele>447.5</ele><time>2026-05-03T09:03:27.911Z</time></trkpt><trkpt lat="44.2418014" lon="11.4951446"><ele>451.0</ele><time>2026-05-03T09:03:28.915Z</time></trkpt><trkpt lat="44.2418649" lon="11.4949803"><ele>454.5</ele><time>2026-05-03T09:03:29.908Z</time></trkpt><trkpt lat="44.2419277" lon="11.4948117"><ele>458.0</ele><time>2026-05-03T09:03:30.91Z</time></trkpt><trkpt lat="44.2419976" lon="11.4946327"><ele>461.75</ele><time>2026-05-03T09:03:31.926Z</time></trkpt><trkpt lat="44.2420503" lon="11.4944604"><ele>465.5</ele><time>2026-05-03T09:03:32.903Z</time></trkpt><trkpt lat="44.2421042" lon="11.4942806"><ele>469.25</ele><time>2026-05-03T09:03:33.907Z</time></trkpt><trkpt lat="44.2421427" lon="11.4941197"><ele>473.0</ele><time>2026-05-03T09:03:34.904Z</time></trkpt><trkpt lat="44.2421653" lon="11.4939857"><ele>473.0</ele><time>2026-05-03T09:03:35.909Z</time></trkpt><trkpt lat="44.2421407" lon="11.4938585"><ele>472.99999999999994</ele><time>2026-05-03T09:03:36.907Z</time></trkpt><trkpt lat="44.2420927" lon="11.4937385"><ele>472.99999999999994</ele><time>2026-05-03T09:03:37.908Z</time></trkpt><trkpt lat="44.2420022" lon="11.4936305"><ele>473.0</ele><time>2026-05-03T09:03:38.908Z</time></trkpt><trkpt lat="44.2418964" lon="11.4935354"><ele>473.0</ele><time>2026-05-03T09:03:39.908Z</time></trkpt><trkpt lat="44.2417768" lon="11.4934421"><ele>472.3333333333333</ele><time>2026-05-03T09:03:40.905Z</time></trkpt><trkpt lat="44.2416463" lon="11.4933505"><ele>471.66666666666663</ele><time>2026-05-03T09:03:41.896Z</time></trkpt><trkpt lat="44.2414966" lon="11.4932604"><ele>471.0</ele><time>2026-05-03T09:03:42.898Z</time></trkpt><trkpt lat="44.2413459" lon="11.4931859"><ele>471.75</ele><time>2026-05-03T09:03:43.895Z</time></trkpt><trkpt lat="44.2412281" lon="11.4931146"><ele>472.5</ele><time>2026-05-03T09:03:44.898Z</time></trkpt><trkpt lat="44.2411398" lon="11.4930164"><ele>473.25</ele><time>2026-05-03T09:03:45.892Z</time></trkpt><trkpt lat="44.241055" lon="11.4929165"><ele>474.0</ele><time>2026-05-03T09:03:46.89Z</time></trkpt><trkpt lat="44.240993" lon="11.4928026"><ele>474.0</ele><time>2026-05-03T09:03:47.902Z</time></trkpt><trkpt lat="44.2409513" lon="11.4926947"><ele>474.0</ele><time>2026-05-03T09:03:48.901Z</time></trkpt><trkpt lat="44.2409373" lon="11.4925694"><ele>474.0</ele><time>2026-05-03T09:03:49.898Z</time></trkpt><trkpt lat="44.2409457" lon="11.4924414"><ele>474.0</ele><time>2026-05-03T09:03:50.911Z</time></trkpt><trkpt lat="44.2409751" lon="11.4922904"><ele>474.0</ele><time>2026-05-03T09:03:51.91Z</time></trkpt><trkpt lat="44.2410181" lon="11.4921297"><ele>472.0</ele><time>2026-05-03T09:03:52.913Z</time></trkpt><trkpt lat="44.2410708" lon="11.4919635"><ele>470.0</ele><time>2026-05-03T09:03:53.915Z</time></trkpt><trkpt lat="44.2411285" lon="11.4917882"><ele>468.0</ele><time>2026-05-03T09:03:54.915Z</time></trkpt><trkpt lat="44.241172" lon="11.4916031"><ele>466.0</ele><time>2026-05-03T09:03:55.911Z</time></trkpt><trkpt lat="44.2411895" lon="11.4914094"><ele>466.6666666666667</ele><time>2026-05-03T09:03:56.896Z</time></trkpt><trkpt lat="44.2411876" lon="11.4912094"><ele>467.33333333333337</ele><time>2026-05-03T09:03:57.901Z</time></trkpt><trkpt lat="44.2411587" lon="11.4909883"><ele>468.0</ele><time>2026-05-03T09:03:58.918Z</time></trkpt><trkpt lat="44.2411073" lon="11.4907929"><ele>468.0</ele><time>2026-05-03T09:03:59.915Z</time></trkpt><trkpt lat="44.2410534" lon="11.4906097"><ele>468.0</ele><time>2026-05-03T09:04:00.914Z</time></trkpt><trkpt lat="44.2409972" lon="11.4904399"><ele>468.0</ele><time>2026-05-03T09:04:01.914Z</time></trkpt><trkpt lat="44.2409637" lon="11.4903048"><ele>468.0</ele><time>2026-05-03T09:04:02.927Z</time></trkpt><trkpt lat="44.2409634" lon="11.4901819"><ele>469.0</ele><time>2026-05-03T09:04:03.906Z</time></trkpt><trkpt lat="44.2409906" lon="11.4900596"><ele>469.99999999999994</ele><time>2026-05-03T09:04:04.894Z</time></trkpt><trkpt lat="44.2410511" lon="11.4899465"><ele>470.99999999999994</ele><time>2026-05-03T09:04:05.903Z</time></trkpt><trkpt lat="44.2411322" lon="11.4898301"><ele>472.0</ele><time>2026-05-03T09:04:06.907Z</time></trkpt><trkpt lat="44.2412487" lon="11.4897399"><ele>473.0</ele><time>2026-05-03T09:04:07.905Z</time></trkpt><trkpt lat="44.2413736" lon="11.4896571"><ele>472.3333333333333</ele><time>2026-05-03T09:04:08.914Z</time></trkpt><trkpt lat="44.2415053" lon="11.4895718"><ele>471.66666666666663</ele><time>2026-05-03T09:04:09.902Z</time></trkpt><trkpt lat="44.2416477" lon="11.4894684"><ele>471.0</ele><time>2026-05-03T09:04:10.899Z</time></trkpt><trkpt lat="44.2417837" lon="11.4893499"><ele>471.0</ele><time>2026-05-03T09:04:11.901Z</time></trkpt><trkpt lat="44.2418891" lon="11.4892114"><ele>471.0</ele><time>2026-05-03T09:04:12.9Z</time></trkpt><trkpt lat="44.2419684" lon="11.4890617"><ele>471.0</ele><time>2026-05-03T09:04:13.896Z</time></trkpt><trkpt lat="44.2420163" lon="11.4888718"><ele>471.0</ele><time>2026-05-03T09:04:14.895Z</time></trkpt><trkpt lat="44.242044" lon="11.4886803"><ele>467.75</ele><time>2026-05-03T09:04:15.892Z</time></trkpt><trkpt lat="44.2420689" lon="11.4885051"><ele>464.5</ele><time>2026-05-03T09:04:16.897Z</time></trkpt><trkpt lat="44.242092" lon="11.4883188"><ele>461.25</ele><time>2026-05-03T09:04:17.889Z</time></trkpt><trkpt lat="44.242122" lon="11.4881361"><ele>458.0</ele><time>2026-05-03T09:04:18.892Z</time></trkpt><trkpt lat="44.2421643" lon="11.4879721"><ele>456.2</ele><time>2026-05-03T09:04:19.881Z</time></trkpt><trkpt lat="44.2422253" lon="11.4878201"><ele>454.4</ele><time>2026-05-03T09:04:20.883Z</time></trkpt><trkpt lat="44.2422988" lon="11.487689"><ele>452.59999999999997</ele><time>2026-05-03T09:04:21.889Z</time></trkpt><trkpt lat="44.242381" lon="11.4875809"><ele>450.79999999999995</ele><time>2026-05-03T09:04:22.879Z</time></trkpt><trkpt lat="44.2424361" lon="11.4874809"><ele>449.0</ele><time>2026-05-03T09:04:23.885Z</time></trkpt><trkpt lat="44.242454" lon="11.4873646"><ele>449.0</ele><time>2026-05-03T09:04:24.887Z</time></trkpt><trkpt lat="44.2424162" lon="11.4872319"><ele>449.0</ele><time>2026-05-03T09:04:25.895Z</time></trkpt><trkpt lat="44.2423633" lon="11.4870969"><ele>449.0</ele><time>2026-05-03T09:04:26.899Z</time></trkpt><trkpt lat="44.2423155" lon="11.4869525"><ele>449.0</ele><time>2026-05-03T09:04:27.897Z</time></trkpt><trkpt lat="44.2422681" lon="11.4867982"><ele>449.0</ele><time>2026-05-03T09:04:28.89Z</time></trkpt><trkpt lat="44.2422225" lon="11.4866407"><ele>449.0</ele><time>2026-05-03T09:04:29.899Z</time></trkpt><trkpt lat="44.2421905" lon="11.4864846"><ele>449.0</ele><time>2026-05-03T09:04:30.898Z</time></trkpt><trkpt lat="44.2421625" lon="11.4863418"><ele>449.0</ele><time>2026-05-03T09:04:31.902Z</time></trkpt><trkpt lat="44.2421366" lon="11.4862153"><ele>449.0</ele><time>2026-05-03T09:04:32.895Z</time></trkpt><trkpt lat="44.2421177" lon="11.4861013"><ele>449.0</ele><time>2026-05-03T09:04:33.914Z</time></trkpt><trkpt lat="44.2420995" lon="11.4859952"><ele>449.4</ele><time>2026-05-03T09:04:34.905Z</time></trkpt><trkpt lat="44.2420764" lon="11.4858963"><ele>449.79999999999995</ele><time>2026-05-03T09:04:35.9Z</time></trkpt><trkpt lat="44.242054" lon="11.4858085"><ele>450.20000000000005</ele><time>2026-05-03T09:04:36.898Z</time></trkpt><trkpt lat="44.2419979" lon="11.4856841"><ele>450.6</ele><time>2026-05-03T09:04:38.897Z</time></trkpt><trkpt lat="44.2419825" lon="11.4855697"><ele>451.0</ele><time>2026-05-03T09:04:40.9Z</time></trkpt><trkpt lat="44.2420106" lon="11.4854009"><ele>451.0</ele><time>2026-05-03T09:04:42.899Z</time></trkpt><trkpt lat="44.242047" lon="11.4852968"><ele>451.0</ele><time>2026-05-03T09:04:43.905Z</time></trkpt><trkpt lat="44.2421071" lon="11.4851654"><ele>451.0</ele><time>2026-05-03T09:04:44.896Z</time></trkpt><trkpt lat="44.242177" lon="11.4850166"><ele>451.0</ele><time>2026-05-03T09:04:45.903Z</time></trkpt><trkpt lat="44.242238" lon="11.4848637"><ele>451.0</ele><time>2026-05-03T09:04:46.898Z</time></trkpt><trkpt lat="44.242273" lon="11.4847212"><ele>450.6666666666667</ele><time>2026-05-03T09:04:47.909Z</time></trkpt><trkpt lat="44.2422743" lon="11.4845924"><ele>450.33333333333337</ele><time>2026-05-03T09:04:48.908Z</time></trkpt><trkpt lat="44.2422555" lon="11.4845015"><ele>450.0</ele><time>2026-05-03T09:04:49.904Z</time></trkpt><trkpt lat="44.2422022" lon="11.4844"><ele>449.66666666666663</ele><time>2026-05-03T09:04:51.892Z</time></trkpt><trkpt lat="44.2421485" lon="11.4843518"><ele>449.3333333333333</ele><time>2026-05-03T09:04:56.908Z</time></trkpt><trkpt lat="44.2421774" lon="11.4841944"><ele>449.0</ele><time>2026-05-03T09:04:58.9Z</time></trkpt><trkpt lat="44.2422103" lon="11.4840721"><ele>449.0</ele><time>2026-05-03T09:04:59.905Z</time></trkpt><trkpt lat="44.2422527" lon="11.4839089"><ele>449.0</ele><time>2026-05-03T09:05:00.915Z</time></trkpt><trkpt lat="44.2423035" lon="11.4837207"><ele>449.0</ele><time>2026-05-03T09:05:01.901Z</time></trkpt><trkpt lat="44.2423394" lon="11.483532"><ele>449.0</ele><time>2026-05-03T09:05:02.903Z</time></trkpt><trkpt lat="44.2423527" lon="11.4833515"><ele>450.0</ele><time>2026-05-03T09:05:03.905Z</time></trkpt><trkpt lat="44.2423294" lon="11.4831829"><ele>451.0</ele><time>2026-05-03T09:05:04.915Z</time></trkpt><trkpt lat="44.2422862" lon="11.483011"><ele>452.0</ele><time>2026-05-03T09:05:05.894Z</time></trkpt><trkpt lat="44.2422035" lon="11.4828486"><ele>453.0</ele><time>2026-05-03T09:05:06.889Z</time></trkpt><trkpt lat="44.2421125" lon="11.4826855"><ele>458.25</ele><time>2026-05-03T09:05:07.893Z</time></trkpt><trkpt lat="44.2420195" lon="11.4825359"><ele>463.5</ele><time>2026-05-03T09:05:08.89Z</time></trkpt><trkpt lat="44.2419485" lon="11.4823986"><ele>468.75</ele><time>2026-05-03T09:05:09.887Z</time></trkpt><trkpt lat="44.2418745" lon="11.4822893"><ele>474.0</ele><time>2026-05-03T09:05:10.887Z</time></trkpt><trkpt lat="44.2417919" lon="11.4822063"><ele>474.0</ele><time>2026-05-03T09:05:11.88Z</time></trkpt><trkpt lat="44.2416915" lon="11.4821432"><ele>474.0</ele><time>2026-05-03T09:05:12.886Z</time></trkpt><trkpt lat="44.2415873" lon="11.482109"><ele>474.0</ele><time>2026-05-03T09:05:13.885Z</time></trkpt><trkpt lat="44.241472" lon="11.4820805"><ele>474.0</ele><time>2026-05-03T09:05:14.89Z</time></trkpt><trkpt lat="44.2413575" lon="11.4820306"><ele>476.2</ele><time>2026-05-03T09:05:15.895Z</time></trkpt><trkpt lat="44.2412527" lon="11.4819688"><ele>478.4</ele><time>2026-05-03T09:05:16.895Z</time></trkpt><trkpt lat="44.2411602" lon="11.4818906"><ele>480.6</ele><time>2026-05-03T09:05:17.893Z</time></trkpt><trkpt lat="44.2410838" lon="11.4817967"><ele>482.8</ele><time>2026-05-03T09:05:18.899Z</time></trkpt><trkpt lat="44.2410276" lon="11.4817057"><ele>485.0</ele><time>2026-05-03T09:05:19.9Z</time></trkpt><trkpt lat="44.2409895" lon="11.4816171"><ele>484.99999999999994</ele><time>2026-05-03T09:05:20.891Z</time></trkpt><trkpt lat="44.2409793" lon="11.481526"><ele>485.0</ele><time>2026-05-03T09:05:21.893Z</time></trkpt><trkpt lat="44.240997" lon="11.4814397"><ele>485.0</ele><time>2026-05-03T09:05:22.9Z</time></trkpt><trkpt lat="44.2410369" lon="11.4813579"><ele>485.0</ele><time>2026-05-03T09:05:23.896Z</time></trkpt><trkpt lat="44.2410913" lon="11.4812842"><ele>484.99999999999994</ele><time>2026-05-03T09:05:24.899Z</time></trkpt><trkpt lat="44.2411764" lon="11.4812406"><ele>485.0</ele><time>2026-05-03T09:05:25.892Z</time></trkpt><trkpt lat="44.2412732" lon="11.481228"><ele>485.5</ele><time>2026-05-03T09:05:26.894Z</time></trkpt><trkpt lat="44.2413796" lon="11.4812322"><ele>486.0</ele><time>2026-05-03T09:05:27.891Z</time></trkpt><trkpt lat="44.2414916" lon="11.4812547"><ele>486.5</ele><time>2026-05-03T09:05:28.895Z</time></trkpt><trkpt lat="44.2416151" lon="11.481303"><ele>487.0</ele><time>2026-05-03T09:05:29.888Z</time></trkpt><trkpt lat="44.241748" lon="11.4813825"><ele>487.0</ele><time>2026-05-03T09:05:30.891Z</time></trkpt><trkpt lat="44.2418872" lon="11.4814885"><ele>487.0</ele><time>2026-05-03T09:05:31.892Z</time></trkpt><trkpt lat="44.2420278" lon="11.4816042"><ele>487.0</ele><time>2026-05-03T09:05:32.892Z</time></trkpt><trkpt lat="44.242167" lon="11.4817317"><ele>484.6666666666667</ele><time>2026-05-03T09:05:33.881Z</time></trkpt><trkpt lat="44.2423025" lon="11.4818375"><ele>482.33333333333337</ele><time>2026-05-03T09:05:34.897Z</time></trkpt><trkpt lat="44.2424407" lon="11.4819353"><ele>480.0</ele><time>2026-05-03T09:05:35.892Z</time></trkpt><trkpt lat="44.2425842" lon="11.4819946"><ele>480.0</ele><time>2026-05-03T09:05:36.874Z</time></trkpt><trkpt lat="44.2427221" lon="11.4820153"><ele>480.0</ele><time>2026-05-03T09:05:37.872Z</time></trkpt><trkpt lat="44.2428797" lon="11.4819898"><ele>480.0</ele><time>2026-05-03T09:05:38.871Z</time></trkpt><trkpt lat="44.2430418" lon="11.4819637"><ele>480.0</ele><time>2026-05-03T09:05:39.878Z</time></trkpt><trkpt lat="44.2431731" lon="11.4819483"><ele>480.0</ele><time>2026-05-03T09:05:40.888Z</time></trkpt><trkpt lat="44.2433034" lon="11.4819393"><ele>480.0</ele><time>2026-05-03T09:05:41.893Z</time></trkpt><trkpt lat="44.2434165" lon="11.4819582"><ele>480.0</ele><time>2026-05-03T09:05:42.884Z</time></trkpt><trkpt lat="44.2435264" lon="11.4820368"><ele>482.75</ele><time>2026-05-03T09:05:43.882Z</time></trkpt><trkpt lat="44.2436257" lon="11.4821429"><ele>485.5</ele><time>2026-05-03T09:05:44.88Z</time></trkpt><trkpt lat="44.243746" lon="11.4822673"><ele>488.25</ele><time>2026-05-03T09:05:45.891Z</time></trkpt><trkpt lat="44.2438796" lon="11.4823831"><ele>491.0</ele><time>2026-05-03T09:05:46.885Z</time></trkpt><trkpt lat="44.2440135" lon="11.482437"><ele>491.0</ele><time>2026-05-03T09:05:47.88Z</time></trkpt><trkpt lat="44.2441599" lon="11.4824571"><ele>491.0</ele><time>2026-05-03T09:05:48.88Z</time></trkpt><trkpt lat="44.2443225" lon="11.4824337"><ele>491.0</ele><time>2026-05-03T09:05:49.883Z</time></trkpt><trkpt lat="44.2444857" lon="11.4823794"><ele>491.0</ele><time>2026-05-03T09:05:50.875Z</time></trkpt><trkpt lat="44.2446307" lon="11.4823124"><ele>491.0</ele><time>2026-05-03T09:05:51.871Z</time></trkpt><trkpt lat="44.2447831" lon="11.4822899"><ele>491.0</ele><time>2026-05-03T09:05:52.87Z</time></trkpt><trkpt lat="44.2449358" lon="11.48227"><ele>490.3333333333333</ele><time>2026-05-03T09:05:53.872Z</time></trkpt><trkpt lat="44.2450897" lon="11.4822548"><ele>489.66666666666663</ele><time>2026-05-03T09:05:54.872Z</time></trkpt><trkpt lat="44.2452382" lon="11.4822092"><ele>489.0</ele><time>2026-05-03T09:05:55.865Z</time></trkpt><trkpt lat="44.2453916" lon="11.4821674"><ele>485.25</ele><time>2026-05-03T09:05:56.867Z</time></trkpt><trkpt lat="44.2455274" lon="11.4820966"><ele>481.5</ele><time>2026-05-03T09:05:57.874Z</time></trkpt><trkpt lat="44.2456452" lon="11.4819953"><ele>477.75</ele><time>2026-05-03T09:05:58.879Z</time></trkpt><trkpt lat="44.2457703" lon="11.4818942"><ele>474.0</ele><time>2026-05-03T09:05:59.886Z</time></trkpt><trkpt lat="44.2458871" lon="11.4817804"><ele>474.0</ele><time>2026-05-03T09:06:00.905Z</time></trkpt><trkpt lat="44.2460075" lon="11.4816711"><ele>474.0</ele><time>2026-05-03T09:06:01.9Z</time></trkpt><trkpt lat="44.2461418" lon="11.4815873"><ele>474.0</ele><time>2026-05-03T09:06:02.908Z</time></trkpt><trkpt lat="44.2462957" lon="11.481525"><ele>474.0</ele><time>2026-05-03T09:06:03.906Z</time></trkpt><trkpt lat="44.2464471" lon="11.4814651"><ele>474.0</ele><time>2026-05-03T09:06:04.909Z</time></trkpt><trkpt lat="44.2465989" lon="11.4814075"><ele>474.0</ele><time>2026-05-03T09:06:05.912Z</time></trkpt><trkpt lat="44.2467389" lon="11.4813933"><ele>473.25</ele><time>2026-05-03T09:06:06.931Z</time></trkpt><trkpt lat="44.2468841" lon="11.4814003"><ele>472.5</ele><time>2026-05-03T09:06:07.905Z</time></trkpt><trkpt lat="44.2470149" lon="11.4814211"><ele>471.75</ele><time>2026-05-03T09:06:08.917Z</time></trkpt><trkpt lat="44.2471606" lon="11.4814527"><ele>471.0</ele><time>2026-05-03T09:06:09.915Z</time></trkpt><trkpt lat="44.2472976" lon="11.4814915"><ele>470.25</ele><time>2026-05-03T09:06:10.918Z</time></trkpt><trkpt lat="44.2474414" lon="11.4815668"><ele>469.5</ele><time>2026-05-03T09:06:11.908Z</time></trkpt><trkpt lat="44.2475686" lon="11.4816558"><ele>468.75</ele><time>2026-05-03T09:06:12.907Z</time></trkpt><trkpt lat="44.2476845" lon="11.4817534"><ele>468.0</ele><time>2026-05-03T09:06:13.907Z</time></trkpt><trkpt lat="44.2478068" lon="11.4818273"><ele>468.0</ele><time>2026-05-03T09:06:14.91Z</time></trkpt><trkpt lat="44.247924" lon="11.4818667"><ele>468.0</ele><time>2026-05-03T09:06:15.908Z</time></trkpt><trkpt lat="44.248051" lon="11.4818874"><ele>468.0</ele><time>2026-05-03T09:06:16.905Z</time></trkpt><trkpt lat="44.2481701" lon="11.4818743"><ele>468.0</ele><time>2026-05-03T09:06:17.902Z</time></trkpt><trkpt lat="44.2482924" lon="11.4818409"><ele>467.5</ele><time>2026-05-03T09:06:18.899Z</time></trkpt><trkpt lat="44.2484165" lon="11.4818116"><ele>467.0</ele><time>2026-05-03T09:06:19.903Z</time></trkpt><trkpt lat="44.2485444" lon="11.4817947"><ele>466.5</ele><time>2026-05-03T09:06:20.898Z</time></trkpt><trkpt lat="44.2486707" lon="11.4817891"><ele>466.0</ele><time>2026-05-03T09:06:21.896Z</time></trkpt><trkpt lat="44.2487857" lon="11.4817735"><ele>466.0</ele><time>2026-05-03T09:06:22.894Z</time></trkpt><trkpt lat="44.2488963" lon="11.4817523"><ele>466.0</ele><time>2026-05-03T09:06:23.905Z</time></trkpt><trkpt lat="44.2490083" lon="11.4817227"><ele>466.0</ele><time>2026-05-03T09:06:24.901Z</time></trkpt><trkpt lat="44.2491245" lon="11.481696"><ele>466.0</ele><time>2026-05-03T09:06:25.911Z</time></trkpt><trkpt lat="44.2492407" lon="11.4816719"><ele>464.20000000000005</ele><time>2026-05-03T09:06:26.902Z</time></trkpt><trkpt lat="44.2493411" lon="11.4816442"><ele>462.40000000000003</ele><time>2026-05-03T09:06:27.907Z</time></trkpt><trkpt lat="44.2494214" lon="11.4816172"><ele>460.6</ele><time>2026-05-03T09:06:28.91Z</time></trkpt><trkpt lat="44.2495164" lon="11.4815401"><ele>458.8</ele><time>2026-05-03T09:06:30.909Z</time></trkpt><trkpt lat="44.2496352" lon="11.481432"><ele>457.0</ele><time>2026-05-03T09:06:32.913Z</time></trkpt><trkpt lat="44.2497068" lon="11.4813732"><ele>457.00000000000006</ele><time>2026-05-03T09:06:33.913Z</time></trkpt><trkpt lat="44.2497722" lon="11.4813064"><ele>457.0</ele><time>2026-05-03T09:06:34.91Z</time></trkpt><trkpt lat="44.2498297" lon="11.4812294"><ele>457.0</ele><time>2026-05-03T09:06:35.905Z</time></trkpt><trkpt lat="44.2498766" lon="11.4811331"><ele>457.0</ele><time>2026-05-03T09:06:36.903Z</time></trkpt><trkpt lat="44.249919" lon="11.4810275"><ele>457.00000000000006</ele><time>2026-05-03T09:06:37.921Z</time></trkpt><trkpt lat="44.2499629" lon="11.4809124"><ele>457.0</ele><time>2026-05-03T09:06:38.899Z</time></trkpt><trkpt lat="44.2500073" lon="11.4808081"><ele>455.50000000000006</ele><time>2026-05-03T09:06:39.906Z</time></trkpt><trkpt lat="44.2500496" lon="11.4807127"><ele>454.0</ele><time>2026-05-03T09:06:40.914Z</time></trkpt><trkpt lat="44.2501005" lon="11.4806259"><ele>452.5</ele><time>2026-05-03T09:06:41.912Z</time></trkpt><trkpt lat="44.250162" lon="11.4805391"><ele>451.0</ele><time>2026-05-03T09:06:42.906Z</time></trkpt><trkpt lat="44.2502328" lon="11.4804509"><ele>449.50000000000006</ele><time>2026-05-03T09:06:43.911Z</time></trkpt><trkpt lat="44.250302" lon="11.4803694"><ele>448.0</ele><time>2026-05-03T09:06:44.916Z</time></trkpt><trkpt lat="44.2503686" lon="11.4802912"><ele>445.59999999999997</ele><time>2026-05-03T09:06:45.91Z</time></trkpt><trkpt lat="44.250439" lon="11.480209"><ele>443.19999999999993</ele><time>2026-05-03T09:06:46.909Z</time></trkpt><trkpt lat="44.2505123" lon="11.4801211"><ele>440.8</ele><time>2026-05-03T09:06:47.905Z</time></trkpt><trkpt lat="44.2505934" lon="11.4800425"><ele>438.4</ele><time>2026-05-03T09:06:48.909Z</time></trkpt><trkpt lat="44.2506861" lon="11.4799705"><ele>436.0</ele><time>2026-05-03T09:06:49.909Z</time></trkpt><trkpt lat="44.250777" lon="11.4798956"><ele>433.8</ele><time>2026-05-03T09:06:50.912Z</time></trkpt><trkpt lat="44.2508666" lon="11.4798198"><ele>431.6</ele><time>2026-05-03T09:06:51.915Z</time></trkpt><trkpt lat="44.250955" lon="11.479742"><ele>429.4</ele><time>2026-05-03T09:06:52.913Z</time></trkpt><trkpt lat="44.251042" lon="11.4796603"><ele>427.2</ele><time>2026-05-03T09:06:53.912Z</time></trkpt><trkpt lat="44.2511186" lon="11.479579"><ele>425.0</ele><time>2026-05-03T09:06:54.906Z</time></trkpt><trkpt lat="44.2511812" lon="11.4795029"><ele>423.99999999999994</ele><time>2026-05-03T09:06:55.912Z</time></trkpt><trkpt lat="44.251219" lon="11.4794241"><ele>423.0</ele><time>2026-05-03T09:06:56.898Z</time></trkpt><trkpt lat="44.2512376" lon="11.4793284"><ele>422.0</ele><time>2026-05-03T09:06:57.901Z</time></trkpt><trkpt lat="44.251246" lon="11.4792243"><ele>421.0</ele><time>2026-05-03T09:06:58.9Z</time></trkpt><trkpt lat="44.2512504" lon="11.4791143"><ele>419.99999999999994</ele><time>2026-05-03T09:06:59.908Z</time></trkpt><trkpt lat="44.2512535" lon="11.4789985"><ele>419.0</ele><time>2026-05-03T09:07:00.905Z</time></trkpt><trkpt lat="44.2512589" lon="11.4788857"><ele>418.99999999999994</ele><time>2026-05-03T09:07:01.905Z</time></trkpt><trkpt lat="44.2512727" lon="11.4787701"><ele>419.0</ele><time>2026-05-03T09:07:02.905Z</time></trkpt><trkpt lat="44.2512924" lon="11.4786493"><ele>419.0</ele><time>2026-05-03T09:07:03.905Z</time></trkpt><trkpt lat="44.251315" lon="11.4785235"><ele>419.0</ele><time>2026-05-03T09:07:04.906Z</time></trkpt><trkpt lat="44.251343" lon="11.4784046"><ele>418.99999999999994</ele><time>2026-05-03T09:07:05.907Z</time></trkpt><trkpt lat="44.2513694" lon="11.478295"><ele>419.0</ele><time>2026-05-03T09:07:06.908Z</time></trkpt><trkpt lat="44.2513909" lon="11.4781907"><ele>417.3333333333333</ele><time>2026-05-03T09:07:07.905Z</time></trkpt><trkpt lat="44.2514119" lon="11.4780927"><ele>415.66666666666663</ele><time>2026-05-03T09:07:08.939Z</time></trkpt><trkpt lat="44.2514293" lon="11.4780007"><ele>414.0</ele><time>2026-05-03T09:07:09.911Z</time></trkpt><trkpt lat="44.251453" lon="11.4778484"><ele>412.33333333333337</ele><time>2026-05-03T09:07:11.908Z</time></trkpt><trkpt lat="44.2514718" lon="11.4777258"><ele>410.6666666666667</ele><time>2026-05-03T09:07:13.91Z</time></trkpt><trkpt lat="44.2514845" lon="11.4776119"><ele>409.0</ele><time>2026-05-03T09:07:15.903Z</time></trkpt><trkpt lat="44.2514895" lon="11.4774864"><ele>407.00000000000006</ele><time>2026-05-03T09:07:17.905Z</time></trkpt><trkpt lat="44.2515074" lon="11.4773727"><ele>405.0</ele><time>2026-05-03T09:07:19.907Z</time></trkpt><trkpt lat="44.2515302" lon="11.4772536"><ele>403.0</ele><time>2026-05-03T09:07:21.9Z</time></trkpt><trkpt lat="44.251542" lon="11.4771508"><ele>401.0</ele><time>2026-05-03T09:07:23.901Z</time></trkpt><trkpt lat="44.2514993" lon="11.4770776"><ele>399.00000000000006</ele><time>2026-05-03T09:07:25.902Z</time></trkpt><trkpt lat="44.2514255" lon="11.477041"><ele>397.0</ele><time>2026-05-03T09:07:27.902Z</time></trkpt><trkpt lat="44.2513488" lon="11.4770437"><ele>397.33333333333337</ele><time>2026-05-03T09:07:29.901Z</time></trkpt><trkpt lat="44.2512732" lon="11.4770925"><ele>397.6666666666667</ele><time>2026-05-03T09:07:31.905Z</time></trkpt><trkpt lat="44.2511821" lon="11.477164"><ele>398.0</ele><time>2026-05-03T09:07:33.907Z</time></trkpt><trkpt lat="44.251103" lon="11.4772136"><ele>398.33333333333337</ele><time>2026-05-03T09:07:35.902Z</time></trkpt><trkpt lat="44.2510365" lon="11.4772026"><ele>398.6666666666667</ele><time>2026-05-03T09:07:37.899Z</time></trkpt><trkpt lat="44.2509883" lon="11.4771437"><ele>399.0</ele><time>2026-05-03T09:07:39.903Z</time></trkpt><trkpt lat="44.2509396" lon="11.4770368"><ele>397.7142857142857</ele><time>2026-05-03T09:07:41.9Z</time></trkpt><trkpt lat="44.2509063" lon="11.4769596"><ele>396.42857142857144</ele><time>2026-05-03T09:07:42.903Z</time></trkpt><trkpt lat="44.2508766" lon="11.4768753"><ele>395.1428571428571</ele><time>2026-05-03T09:07:43.902Z</time></trkpt><trkpt lat="44.2508453" lon="11.476787"><ele>393.8571428571429</ele><time>2026-05-03T09:07:44.905Z</time></trkpt><trkpt lat="44.2508092" lon="11.476708"><ele>392.57142857142856</ele><time>2026-05-03T09:07:45.897Z</time></trkpt><trkpt lat="44.2507645" lon="11.4766402"><ele>391.2857142857143</ele><time>2026-05-03T09:07:46.904Z</time></trkpt><trkpt lat="44.2507112" lon="11.4765707"><ele>390.0</ele><time>2026-05-03T09:07:47.901Z</time></trkpt><trkpt lat="44.2506537" lon="11.4765042"><ele>389.1666666666667</ele><time>2026-05-03T09:07:48.905Z</time></trkpt><trkpt lat="44.2505934" lon="11.4764354"><ele>388.33333333333337</ele><time>2026-05-03T09:07:49.907Z</time></trkpt><trkpt lat="44.2505341" lon="11.4763704"><ele>387.5</ele><time>2026-05-03T09:07:50.895Z</time></trkpt><trkpt lat="44.2504814" lon="11.476309"><ele>386.6666666666667</ele><time>2026-05-03T09:07:51.898Z</time></trkpt><trkpt lat="44.2504194" lon="11.4762412"><ele>385.83333333333337</ele><time>2026-05-03T09:07:53.894Z</time></trkpt><trkpt lat="44.2503512" lon="11.4761943"><ele>385.0</ele><time>2026-05-03T09:07:55.903Z</time></trkpt><trkpt lat="44.250259" lon="11.4761539"><ele>385.0</ele><time>2026-05-03T09:07:57.904Z</time></trkpt><trkpt lat="44.2501706" lon="11.4761102"><ele>385.0</ele><time>2026-05-03T09:07:59.909Z</time></trkpt><trkpt lat="44.2500855" lon="11.4760943"><ele>385.0</ele><time>2026-05-03T09:08:01.903Z</time></trkpt><trkpt lat="44.2499787" lon="11.4761029"><ele>385.0</ele><time>2026-05-03T09:08:03.9Z</time></trkpt><trkpt lat="44.2498611" lon="11.4761415"><ele>385.0</ele><time>2026-05-03T09:08:05.898Z</time></trkpt><trkpt lat="44.2497438" lon="11.4761746"><ele>384.4</ele><time>2026-05-03T09:08:07.889Z</time></trkpt><trkpt lat="44.2496357" lon="11.4761983"><ele>383.8</ele><time>2026-05-03T09:08:09.906Z</time></trkpt><trkpt lat="44.2495335" lon="11.476199"><ele>383.20000000000005</ele><time>2026-05-03T09:08:11.889Z</time></trkpt><trkpt lat="44.249438" lon="11.4762168"><ele>382.6</ele><time>2026-05-03T09:08:13.89Z</time></trkpt><trkpt lat="44.249328" lon="11.4762792"><ele>382.0</ele><time>2026-05-03T09:08:15.894Z</time></trkpt><trkpt lat="44.2492467" lon="11.4763451"><ele>383.20000000000005</ele><time>2026-05-03T09:08:17.896Z</time></trkpt><trkpt lat="44.2491828" lon="11.4763874"><ele>384.4</ele><time>2026-05-03T09:09:01.889Z</time></trkpt><trkpt lat="44.2491178" lon="11.4764298"><ele>385.6</ele><time>2026-05-03T09:09:03.889Z</time></trkpt><trkpt lat="44.2490189" lon="11.4764798"><ele>386.79999999999995</ele><time>2026-05-03T09:09:05.888Z</time></trkpt><trkpt lat="44.2489098" lon="11.4765094"><ele>388.0</ele><time>2026-05-03T09:09:07.881Z</time></trkpt><trkpt lat="44.2487898" lon="11.4765402"><ele>388.00000000000006</ele><time>2026-05-03T09:09:09.886Z</time></trkpt><trkpt lat="44.2487288" lon="11.476566"><ele>388.0</ele><time>2026-05-03T09:09:10.875Z</time></trkpt><trkpt lat="44.2486356" lon="11.4766454"><ele>388.0</ele><time>2026-05-03T09:09:12.877Z</time></trkpt><trkpt lat="44.2485719" lon="11.4766904"><ele>388.0</ele><time>2026-05-03T09:09:14.88Z</time></trkpt><trkpt lat="44.2485041" lon="11.4766965"><ele>388.00000000000006</ele><time>2026-05-03T09:09:17.873Z</time></trkpt><trkpt lat="44.2484244" lon="11.476659"><ele>388.0</ele><time>2026-05-03T09:09:19.876Z</time></trkpt><trkpt lat="44.2483305" lon="11.4766567"><ele>388.00000000000006</ele><time>2026-05-03T09:09:21.882Z</time></trkpt><trkpt lat="44.2482603" lon="11.4767187"><ele>388.0</ele><time>2026-05-03T09:09:23.881Z</time></trkpt><trkpt lat="44.2481983" lon="11.4767859"><ele>388.0</ele><time>2026-05-03T09:09:25.884Z</time></trkpt><trkpt lat="44.2481418" lon="11.4768287"><ele>388.0</ele><time>2026-05-03T09:09:27.882Z</time></trkpt><trkpt lat="44.2480697" lon="11.4768809"><ele>388.00000000000006</ele><time>2026-05-03T09:09:30.879Z</time></trkpt><trkpt lat="44.2481391" lon="11.4769074"><ele>388.0</ele><time>2026-05-03T09:10:29.885Z</time></trkpt><trkpt lat="44.2482108" lon="11.4768591"><ele>388.0</ele><time>2026-05-03T09:10:31.885Z</time></trkpt><trkpt lat="44.2483071" lon="11.4767876"><ele>388.0</ele><time>2026-05-03T09:10:33.886Z</time></trkpt><trkpt lat="44.2484052" lon="11.4767032"><ele>388.0</ele><time>2026-05-03T09:10:35.882Z</time></trkpt><trkpt lat="44.2485008" lon="11.4766768"><ele>388.0</ele><time>2026-05-03T09:10:37.877Z</time></trkpt><trkpt lat="44.2485904" lon="11.4766946"><ele>388.0</ele><time>2026-05-03T09:10:39.885Z</time></trkpt><trkpt lat="44.2486613" lon="11.4766909"><ele>388.0</ele><time>2026-05-03T09:10:41.878Z</time></trkpt><trkpt lat="44.2487511" lon="11.4766382"><ele>388.0</ele><time>2026-05-03T09:10:43.879Z</time></trkpt><trkpt lat="44.248814" lon="11.4765976"><ele>388.0</ele><time>2026-05-03T09:10:44.891Z</time></trkpt><trkpt lat="44.2488763" lon="11.4765625"><ele>388.0</ele><time>2026-05-03T09:10:45.875Z</time></trkpt><trkpt lat="44.2489376" lon="11.4765269"><ele>388.0</ele><time>2026-05-03T09:10:46.874Z</time></trkpt><trkpt lat="44.2489991" lon="11.4764932"><ele>388.0</ele><time>2026-05-03T09:10:47.876Z</time></trkpt><trkpt lat="44.2490728" lon="11.476471"><ele>388.0</ele><time>2026-05-03T09:10:48.876Z</time></trkpt><trkpt lat="44.2491423" lon="11.4764451"><ele>387.00000000000006</ele><time>2026-05-03T09:10:49.882Z</time></trkpt><trkpt lat="44.2492057" lon="11.4764267"><ele>386.0</ele><time>2026-05-03T09:10:50.887Z</time></trkpt><trkpt lat="44.2493253" lon="11.4763674"><ele>385.0</ele><time>2026-05-03T09:10:52.896Z</time></trkpt><trkpt lat="44.249434" lon="11.4762844"><ele>384.0</ele><time>2026-05-03T09:10:54.911Z</time></trkpt><trkpt lat="44.2494942" lon="11.4762441"><ele>383.0</ele><time>2026-05-03T09:10:55.912Z</time></trkpt><trkpt lat="44.2495519" lon="11.4762029"><ele>382.0</ele><time>2026-05-03T09:10:56.907Z</time></trkpt><trkpt lat="44.2496572" lon="11.4761623"><ele>382.0</ele><time>2026-05-03T09:10:58.912Z</time></trkpt><trkpt lat="44.2497505" lon="11.4761734"><ele>382.0</ele><time>2026-05-03T09:11:00.911Z</time></trkpt><trkpt lat="44.2498572" lon="11.4761887"><ele>382.0</ele><time>2026-05-03T09:11:02.907Z</time></trkpt><trkpt lat="44.2499842" lon="11.4761755"><ele>382.0</ele><time>2026-05-03T09:11:04.909Z</time></trkpt><trkpt lat="44.250099" lon="11.4761529"><ele>382.0</ele><time>2026-05-03T09:11:06.908Z</time></trkpt><trkpt lat="44.2502037" lon="11.4761407"><ele>382.6</ele><time>2026-05-03T09:11:08.907Z</time></trkpt><trkpt lat="44.2502947" lon="11.4761712"><ele>383.20000000000005</ele><time>2026-05-03T09:11:10.907Z</time></trkpt><trkpt lat="44.2503777" lon="11.4762477"><ele>383.8</ele><time>2026-05-03T09:11:12.912Z</time></trkpt><trkpt lat="44.2504607" lon="11.4763157"><ele>384.4</ele><time>2026-05-03T09:11:14.914Z</time></trkpt><trkpt lat="44.2504883" lon="11.4762087"><ele>385.0</ele><time>2026-05-03T09:11:21.905Z</time></trkpt><trkpt lat="44.2504528" lon="11.4761082"><ele>385.00000000000006</ele><time>2026-05-03T09:11:23.911Z</time></trkpt><trkpt lat="44.2504139" lon="11.476008"><ele>385.0</ele><time>2026-05-03T09:11:25.908Z</time></trkpt><trkpt lat="44.2503564" lon="11.4759386"><ele>385.0</ele><time>2026-05-03T09:11:28.903Z</time></trkpt><trkpt lat="44.2502823" lon="11.4759473"><ele>385.0</ele><time>2026-05-03T09:11:38.901Z</time></trkpt><trkpt lat="44.2502083" lon="11.4759231"><ele>385.00000000000006</ele><time>2026-05-03T09:11:40.903Z</time></trkpt><trkpt lat="44.2501288" lon="11.4758819"><ele>385.0</ele><time>2026-05-03T09:11:43.894Z</time></trkpt><trkpt lat="44.2500628" lon="11.4758072"><ele>385.0</ele><time>2026-05-03T09:11:46.906Z</time></trkpt><trkpt lat="44.2499989" lon="11.4757144"><ele>385.0</ele><time>2026-05-03T09:11:48.887Z</time></trkpt><trkpt lat="44.2499138" lon="11.4756119"><ele>385.0</ele><time>2026-05-03T09:11:50.893Z</time></trkpt><trkpt lat="44.2498309" lon="11.4755128"><ele>385.0</ele><time>2026-05-03T09:11:52.897Z</time></trkpt><trkpt lat="44.2497547" lon="11.4754248"><ele>385.0</ele><time>2026-05-03T09:11:54.897Z</time></trkpt><trkpt lat="44.2496667" lon="11.475336"><ele>382.6</ele><time>2026-05-03T09:11:56.897Z</time></trkpt><trkpt lat="44.2495773" lon="11.4752534"><ele>380.2</ele><time>2026-05-03T09:11:58.898Z</time></trkpt><trkpt lat="44.2494894" lon="11.4751771"><ele>377.79999999999995</ele><time>2026-05-03T09:12:00.904Z</time></trkpt><trkpt lat="44.2494106" lon="11.4751207"><ele>375.4</ele><time>2026-05-03T09:12:02.901Z</time></trkpt><trkpt lat="44.2493237" lon="11.4750681"><ele>373.0</ele><time>2026-05-03T09:12:04.908Z</time></trkpt><trkpt lat="44.2492344" lon="11.4750101"><ele>373.0</ele><time>2026-05-03T09:12:06.906Z</time></trkpt><trkpt lat="44.249146" lon="11.4749561"><ele>373.0</ele><time>2026-05-03T09:12:08.908Z</time></trkpt><trkpt lat="44.2490439" lon="11.4748883"><ele>373.0</ele><time>2026-05-03T09:12:10.91Z</time></trkpt><trkpt lat="44.2489455" lon="11.4748146"><ele>373.0</ele><time>2026-05-03T09:12:12.913Z</time></trkpt><trkpt lat="44.2488682" lon="11.4747259"><ele>373.0</ele><time>2026-05-03T09:12:14.913Z</time></trkpt><trkpt lat="44.2488197" lon="11.4746266"><ele>371.79999999999995</ele><time>2026-05-03T09:12:16.913Z</time></trkpt><trkpt lat="44.2488057" lon="11.4745159"><ele>370.6</ele><time>2026-05-03T09:12:18.906Z</time></trkpt><trkpt lat="44.2488279" lon="11.474377"><ele>369.4</ele><time>2026-05-03T09:12:20.916Z</time></trkpt><trkpt lat="44.2488676" lon="11.4742099"><ele>368.20000000000005</ele><time>2026-05-03T09:12:22.917Z</time></trkpt><trkpt lat="44.2489032" lon="11.4740449"><ele>367.0</ele><time>2026-05-03T09:12:24.913Z</time></trkpt><trkpt lat="44.2489257" lon="11.4738946"><ele>364.16666666666663</ele><time>2026-05-03T09:12:26.915Z</time></trkpt><trkpt lat="44.2489387" lon="11.4737579"><ele>361.3333333333333</ele><time>2026-05-03T09:12:28.913Z</time></trkpt><trkpt lat="44.2489477" lon="11.4736307"><ele>358.5</ele><time>2026-05-03T09:12:30.914Z</time></trkpt><trkpt lat="44.2489503" lon="11.4735161"><ele>355.6666666666667</ele><time>2026-05-03T09:12:32.917Z</time></trkpt><trkpt lat="44.2489442" lon="11.4734248"><ele>352.83333333333337</ele><time>2026-05-03T09:12:34.914Z</time></trkpt><trkpt lat="44.2489445" lon="11.4735365"><ele>350.0</ele><time>2026-05-03T09:13:46.908Z</time></trkpt><trkpt lat="44.2489378" lon="11.4736553"><ele>353.4</ele><time>2026-05-03T09:13:48.917Z</time></trkpt><trkpt lat="44.2489257" lon="11.4737958"><ele>356.8</ele><time>2026-05-03T09:13:50.928Z</time></trkpt><trkpt lat="44.2489114" lon="11.4739426"><ele>360.20000000000005</ele><time>2026-05-03T09:13:52.916Z</time></trkpt><trkpt lat="44.2488942" lon="11.4740929"><ele>363.6</ele><time>2026-05-03T09:13:54.915Z</time></trkpt><trkpt lat="44.2488714" lon="11.4742532"><ele>367.0</ele><time>2026-05-03T09:13:56.914Z</time></trkpt><trkpt lat="44.2488506" lon="11.4744175"><ele>367.0</ele><time>2026-05-03T09:13:58.913Z</time></trkpt><trkpt lat="44.248839" lon="11.4745619"><ele>367.0</ele><time>2026-05-03T09:14:00.913Z</time></trkpt><trkpt lat="44.2488366" lon="11.4746826"><ele>367.0</ele><time>2026-05-03T09:14:02.911Z</time></trkpt><trkpt lat="44.2488621" lon="11.4747971"><ele>367.0</ele><time>2026-05-03T09:14:04.907Z</time></trkpt><trkpt lat="44.248932" lon="11.4748947"><ele>367.0</ele><time>2026-05-03T09:14:06.912Z</time></trkpt><trkpt lat="44.2490274" lon="11.4749806"><ele>368.5</ele><time>2026-05-03T09:14:08.914Z</time></trkpt><trkpt lat="44.2491251" lon="11.475049"><ele>370.0</ele><time>2026-05-03T09:14:10.921Z</time></trkpt><trkpt lat="44.2492314" lon="11.4750978"><ele>371.5</ele><time>2026-05-03T09:14:12.917Z</time></trkpt><trkpt lat="44.2493397" lon="11.4751494"><ele>373.0</ele><time>2026-05-03T09:14:14.921Z</time></trkpt><trkpt lat="44.2494523" lon="11.4752137"><ele>373.0</ele><time>2026-05-03T09:14:16.92Z</time></trkpt><trkpt lat="44.2495663" lon="11.4752896"><ele>373.0</ele><time>2026-05-03T09:14:18.919Z</time></trkpt><trkpt lat="44.2496711" lon="11.4753876"><ele>373.0</ele><time>2026-05-03T09:14:20.918Z</time></trkpt><trkpt lat="44.2497712" lon="11.4754941"><ele>373.0</ele><time>2026-05-03T09:14:22.912Z</time></trkpt><trkpt lat="44.2498622" lon="11.4755972"><ele>375.4</ele><time>2026-05-03T09:14:24.91Z</time></trkpt><trkpt lat="44.2499471" lon="11.4757043"><ele>377.79999999999995</ele><time>2026-05-03T09:14:26.909Z</time></trkpt><trkpt lat="44.2500298" lon="11.4758037"><ele>380.2</ele><time>2026-05-03T09:14:28.907Z</time></trkpt><trkpt lat="44.2501076" lon="11.4759052"><ele>382.6</ele><time>2026-05-03T09:14:30.911Z</time></trkpt><trkpt lat="44.250182" lon="11.4759849"><ele>385.0</ele><time>2026-05-03T09:14:32.903Z</time></trkpt><trkpt lat="44.2502564" lon="11.4760154"><ele>385.0</ele><time>2026-05-03T09:14:34.907Z</time></trkpt><trkpt lat="44.2503505" lon="11.4760489"><ele>385.0</ele><time>2026-05-03T09:14:36.91Z</time></trkpt><trkpt lat="44.2504193" lon="11.4761045"><ele>385.0</ele><time>2026-05-03T09:14:38.907Z</time></trkpt><trkpt lat="44.250465" lon="11.4761986"><ele>385.0</ele><time>2026-05-03T09:14:40.909Z</time></trkpt><trkpt lat="44.2505049" lon="11.4763454"><ele>385.0</ele><time>2026-05-03T09:14:42.907Z</time></trkpt><trkpt lat="44.2505679" lon="11.4764821"><ele>385.83333333333337</ele><time>2026-05-03T09:14:44.91Z</time></trkpt><trkpt lat="44.2506571" lon="11.4766093"><ele>386.6666666666667</ele><time>2026-05-03T09:14:46.915Z</time></trkpt><trkpt lat="44.2507135" lon="11.4766773"><ele>387.5</ele><time>2026-05-03T09:14:47.911Z</time></trkpt><trkpt lat="44.2507733" lon="11.4767432"><ele>388.33333333333337</ele><time>2026-05-03T09:14:48.911Z</time></trkpt><trkpt lat="44.2508238" lon="11.4768021"><ele>389.1666666666667</ele><time>2026-05-03T09:14:49.907Z</time></trkpt><trkpt lat="44.2509078" lon="11.4768863"><ele>390.0</ele><time>2026-05-03T09:14:51.906Z</time></trkpt><trkpt lat="44.250994" lon="11.4769178"><ele>390.0</ele><time>2026-05-03T09:14:53.906Z</time></trkpt><trkpt lat="44.2510995" lon="11.4769307"><ele>390.0</ele><time>2026-05-03T09:14:55.905Z</time></trkpt><trkpt lat="44.2511989" lon="11.4769456"><ele>390.0</ele><time>2026-05-03T09:14:57.902Z</time></trkpt><trkpt lat="44.2513131" lon="11.4770039"><ele>390.0</ele><time>2026-05-03T09:14:59.906Z</time></trkpt><trkpt lat="44.2514139" lon="11.4770643"><ele>390.0</ele><time>2026-05-03T09:15:01.9Z</time></trkpt><trkpt lat="44.2514905" lon="11.4771102"><ele>391.1666666666667</ele><time>2026-05-03T09:15:03.894Z</time></trkpt><trkpt lat="44.2515344" lon="11.4772002"><ele>392.33333333333337</ele><time>2026-05-03T09:15:07.899Z</time></trkpt><trkpt lat="44.2515306" lon="11.4773023"><ele>393.5</ele><time>2026-05-03T09:15:09.903Z</time></trkpt><trkpt lat="44.2515161" lon="11.4774154"><ele>394.6666666666667</ele><time>2026-05-03T09:15:11.899Z</time></trkpt><trkpt lat="44.2514918" lon="11.4775198"><ele>395.83333333333337</ele><time>2026-05-03T09:15:13.896Z</time></trkpt><trkpt lat="44.2514558" lon="11.4776581"><ele>397.0</ele><time>2026-05-03T09:15:15.905Z</time></trkpt><trkpt lat="44.2514356" lon="11.4777499"><ele>397.33333333333337</ele><time>2026-05-03T09:15:16.907Z</time></trkpt><trkpt lat="44.2514199" lon="11.4778394"><ele>397.6666666666667</ele><time>2026-05-03T09:15:17.905Z</time></trkpt><trkpt lat="44.2514036" lon="11.4779342"><ele>398.0</ele><time>2026-05-03T09:15:18.905Z</time></trkpt><trkpt lat="44.251387" lon="11.4780335"><ele>398.33333333333337</ele><time>2026-05-03T09:15:19.904Z</time></trkpt><trkpt lat="44.2513653" lon="11.4781358"><ele>398.6666666666667</ele><time>2026-05-03T09:15:20.907Z</time></trkpt><trkpt lat="44.2513415" lon="11.4782517"><ele>399.0</ele><time>2026-05-03T09:15:21.906Z</time></trkpt><trkpt lat="44.2513152" lon="11.4783869"><ele>401.0</ele><time>2026-05-03T09:15:22.908Z</time></trkpt><trkpt lat="44.251287" lon="11.4785211"><ele>403.0</ele><time>2026-05-03T09:15:23.924Z</time></trkpt><trkpt lat="44.2512589" lon="11.4786534"><ele>405.0</ele><time>2026-05-03T09:15:24.909Z</time></trkpt><trkpt lat="44.2512371" lon="11.4787892"><ele>407.0</ele><time>2026-05-03T09:15:25.91Z</time></trkpt><trkpt lat="44.2512149" lon="11.4789202"><ele>409.0</ele><time>2026-05-03T09:15:26.908Z</time></trkpt><trkpt lat="44.2511957" lon="11.4790494"><ele>410.6666666666667</ele><time>2026-05-03T09:15:27.909Z</time></trkpt><trkpt lat="44.2511741" lon="11.4791768"><ele>412.33333333333337</ele><time>2026-05-03T09:15:28.908Z</time></trkpt><trkpt lat="44.2511506" lon="11.4792984"><ele>414.0</ele><time>2026-05-03T09:15:29.908Z</time></trkpt><trkpt lat="44.2511264" lon="11.4794154"><ele>415.66666666666663</ele><time>2026-05-03T09:15:30.909Z</time></trkpt><trkpt lat="44.2511004" lon="11.4795233"><ele>417.3333333333333</ele><time>2026-05-03T09:15:31.905Z</time></trkpt><trkpt lat="44.2510682" lon="11.4796154"><ele>419.0</ele><time>2026-05-03T09:15:32.899Z</time></trkpt><trkpt lat="44.2510283" lon="11.4796986"><ele>419.99999999999994</ele><time>2026-05-03T09:15:33.901Z</time></trkpt><trkpt lat="44.2509727" lon="11.4797694"><ele>421.0</ele><time>2026-05-03T09:15:34.899Z</time></trkpt><trkpt lat="44.2509074" lon="11.4798341"><ele>422.0</ele><time>2026-05-03T09:15:35.896Z</time></trkpt><trkpt lat="44.2508327" lon="11.4798881"><ele>423.0</ele><time>2026-05-03T09:15:36.898Z</time></trkpt><trkpt lat="44.25075" lon="11.4799446"><ele>423.99999999999994</ele><time>2026-05-03T09:15:37.9Z</time></trkpt><trkpt lat="44.2506654" lon="11.4800049"><ele>425.0</ele><time>2026-05-03T09:15:38.902Z</time></trkpt><trkpt lat="44.2505812" lon="11.4800686"><ele>427.2</ele><time>2026-05-03T09:15:39.896Z</time></trkpt><trkpt lat="44.250496" lon="11.4801327"><ele>429.4</ele><time>2026-05-03T09:15:40.896Z</time></trkpt><trkpt lat="44.2504201" lon="11.4802024"><ele>431.6</ele><time>2026-05-03T09:15:41.896Z</time></trkpt><trkpt lat="44.2503407" lon="11.4802721"><ele>433.8</ele><time>2026-05-03T09:15:42.901Z</time></trkpt><trkpt lat="44.2502658" lon="11.4803469"><ele>436.0</ele><time>2026-05-03T09:15:43.894Z</time></trkpt><trkpt lat="44.2501989" lon="11.4804315"><ele>438.00000000000006</ele><time>2026-05-03T09:15:44.895Z</time></trkpt><trkpt lat="44.2501361" lon="11.4805177"><ele>440.0</ele><time>2026-05-03T09:15:45.896Z</time></trkpt><trkpt lat="44.2500792" lon="11.4805966"><ele>442.0</ele><time>2026-05-03T09:15:46.899Z</time></trkpt><trkpt lat="44.2500255" lon="11.4806718"><ele>444.0</ele><time>2026-05-03T09:15:47.895Z</time></trkpt><trkpt lat="44.249977" lon="11.4807488"><ele>446.00000000000006</ele><time>2026-05-03T09:15:48.891Z</time></trkpt><trkpt lat="44.2499315" lon="11.4808219"><ele>448.0</ele><time>2026-05-03T09:15:49.891Z</time></trkpt><trkpt lat="44.2498869" lon="11.4809067"><ele>448.00000000000006</ele><time>2026-05-03T09:15:50.896Z</time></trkpt><trkpt lat="44.2498434" lon="11.4809958"><ele>448.0</ele><time>2026-05-03T09:15:51.894Z</time></trkpt><trkpt lat="44.2498022" lon="11.4810925"><ele>448.0</ele><time>2026-05-03T09:15:52.897Z</time></trkpt><trkpt lat="44.249759" lon="11.4811823"><ele>448.0</ele><time>2026-05-03T09:15:53.896Z</time></trkpt><trkpt lat="44.2497185" lon="11.4812717"><ele>448.00000000000006</ele><time>2026-05-03T09:15:54.909Z</time></trkpt><trkpt lat="44.2496704" lon="11.4813443"><ele>448.0</ele><time>2026-05-03T09:15:55.89Z</time></trkpt><trkpt lat="44.249615" lon="11.4814105"><ele>449.50000000000006</ele><time>2026-05-03T09:15:56.886Z</time></trkpt><trkpt lat="44.2495533" lon="11.4814646"><ele>451.0</ele><time>2026-05-03T09:15:57.889Z</time></trkpt><trkpt lat="44.2494865" lon="11.4815112"><ele>452.5</ele><time>2026-05-03T09:15:58.892Z</time></trkpt><trkpt lat="44.2494202" lon="11.4815494"><ele>454.0</ele><time>2026-05-03T09:15:59.893Z</time></trkpt><trkpt lat="44.24936" lon="11.4815879"><ele>455.50000000000006</ele><time>2026-05-03T09:16:00.904Z</time></trkpt><trkpt lat="44.2492757" lon="11.4816368"><ele>457.0</ele><time>2026-05-03T09:16:02.896Z</time></trkpt><trkpt lat="44.2491904" lon="11.4816901"><ele>457.0</ele><time>2026-05-03T09:16:04.892Z</time></trkpt><trkpt lat="44.2491267" lon="11.4817105"><ele>457.00000000000006</ele><time>2026-05-03T09:16:05.893Z</time></trkpt><trkpt lat="44.2490507" lon="11.4817129"><ele>457.00000000000006</ele><time>2026-05-03T09:16:06.895Z</time></trkpt><trkpt lat="44.2489531" lon="11.4817049"><ele>457.0</ele><time>2026-05-03T09:16:07.892Z</time></trkpt><trkpt lat="44.2488464" lon="11.4817087"><ele>457.0</ele><time>2026-05-03T09:16:08.895Z</time></trkpt><trkpt lat="44.2487368" lon="11.4817228"><ele>459.25</ele><time>2026-05-03T09:16:09.892Z</time></trkpt><trkpt lat="44.248626" lon="11.4817342"><ele>461.5</ele><time>2026-05-03T09:16:10.886Z</time></trkpt><trkpt lat="44.2485152" lon="11.481744"><ele>463.75</ele><time>2026-05-03T09:16:11.888Z</time></trkpt><trkpt lat="44.2484012" lon="11.4817553"><ele>466.0</ele><time>2026-05-03T09:16:12.886Z</time></trkpt><trkpt lat="44.2482839" lon="11.4817643"><ele>466.0</ele><time>2026-05-03T09:16:13.89Z</time></trkpt><trkpt lat="44.2481639" lon="11.4817713"><ele>466.0</ele><time>2026-05-03T09:16:14.891Z</time></trkpt></trkseg></trk></gpx>